Observation data for Bootleg on 07/03/2020      Previous  Date  Next       Current Mesonet Observations  Soil Data  Daily Summary Page  Observations in Plain Language
KBO1 030500Z 13012KT 22/16 A3016 RMK A01 T02240157  RH  066%=      5-min Rain = 0
KBO1 030501Z 13012KT 22/16 A3016 RMK A01 T02240157  RH  066%=      5-min Rain = 0
KBO1 030502Z 13011KT 22/16 A3016 RMK A01 T02240157  RH  066%=      5-min Rain = 0
KBO1 030503Z 13011KT 22/16 A3016 RMK A01 T02240157  RH  066%=      5-min Rain = 0
KBO1 030504Z 13010KT 22/16 A3016 RMK A01 T02240156  RH  065%=      5-min Rain = 0
KBO1 030505Z 13012KT 22/16 A3016 RMK A01 T02240157  RH  065%=      5-min Rain = 0
KBO1 030506Z 13011KT 23/16 A3016 RMK A01 T02250157  RH  065%=      5-min Rain = 0
KBO1 030507Z 13011KT 23/16 A3016 RMK A01 T02250156  RH  065%=      5-min Rain = 0
KBO1 030508Z 13013KT 23/16 A3016 RMK A01 T02250156  RH  065%=      5-min Rain = 0
KBO1 030509Z 13012KT 23/16 A3016 RMK A01 T02260157  RH  065%=      5-min Rain = 0
KBO1 030510Z 13013KT 23/16 A3016 RMK A01 T02250156  RH  065%=      5-min Rain = 0
KBO1 030511Z 13012KT 23/16 A3016 RMK A01 T02260156  RH  065%=      5-min Rain = 0
KBO1 030512Z 13012KT 23/16 A3016 RMK A01 T02260156  RH  065%=      5-min Rain = 0
KBO1 030513Z 13012KT 23/16 A3016 RMK A01 T02260156  RH  065%=      5-min Rain = 0
KBO1 030514Z 13012KT 23/16 A3016 RMK A01 T02260156  RH  065%=      5-min Rain = 0
KBO1 030515Z 13011KT 23/16 A3016 RMK A01 T02260156  RH  065%=      5-min Rain = 0
KBO1 030516Z 13011KT 23/16 A3016 RMK A01 T02260156  RH  065%=      5-min Rain = 0
KBO1 030517Z 13011KT 23/16 A3016 RMK A01 T02260156  RH  065%=      5-min Rain = 0
KBO1 030518Z 13011KT 23/16 A3016 RMK A01 T02260156  RH  065%=      5-min Rain = 0
KBO1 030519Z 13011KT 23/16 A3016 RMK A01 T02260156  RH  065%=      5-min Rain = 0
KBO1 030520Z 13011KT 23/16 A3016 RMK A01 T02260156  RH  065%=      5-min Rain = 0
KBO1 030521Z 13011KT 23/16 A3016 RMK A01 T02260156  RH  064%=      5-min Rain = 0
KBO1 030522Z 13011KT 23/16 A3016 RMK A01 T02260156  RH  064%=      5-min Rain = 0
KBO1 030523Z 13010KT 23/16 A3017 RMK A01 T02260156  RH  064%=      5-min Rain = 0
KBO1 030524Z 13010KT 23/16 A3017 RMK A01 T02260156  RH  064%=      5-min Rain = 0
KBO1 030525Z 12011KT 23/16 A3017 RMK A01 T02260156  RH  064%=      5-min Rain = 0
KBO1 030526Z 13012KT 23/16 A3017 RMK A01 T02260156  RH  064%=      5-min Rain = 0
KBO1 030527Z 13011KT 23/16 A3017 RMK A01 T02270156  RH  064%=      5-min Rain = 0
KBO1 030528Z 12010KT 23/16 A3017 RMK A01 T02260155  RH  064%=      5-min Rain = 0
KBO1 030529Z 12010KT 23/16 A3017 RMK A01 T02270156  RH  064%=      5-min Rain = 0
KBO1 030530Z 12010KT 23/16 A3017 RMK A01 T02270156  RH  064%=      5-min Rain = 0
KBO1 030531Z 12010KT 23/16 A3017 RMK A01 T02270156  RH  064%=      5-min Rain = 0
KBO1 030532Z 12011KT 23/16 A3017 RMK A01 T02270155  RH  064%=      5-min Rain = 0
KBO1 030533Z 12010KT 23/16 A3017 RMK A01 T02270155  RH  064%=      5-min Rain = 0
KBO1 030534Z 12009KT 23/16 A3017 RMK A01 T02270155  RH  064%=      5-min Rain = 0
KBO1 030535Z 12010KT 23/16 A3017 RMK A01 T02270155  RH  064%=      5-min Rain = 0
KBO1 030536Z 12010KT 23/16 A3017 RMK A01 T02270155  RH  064%=      5-min Rain = 0
KBO1 030537Z 12010KT 23/16 A3017 RMK A01 T02270155  RH  064%=      5-min Rain = 0
KBO1 030538Z 12009KT 23/16 A3017 RMK A01 T02270155  RH  064%=      5-min Rain = 0
KBO1 030539Z 13010KT 23/16 A3017 RMK A01 T02270155  RH  064%=      5-min Rain = 0
KBO1 030540Z 12010KT 23/16 A3017 RMK A01 T02270155  RH  064%=      5-min Rain = 0
KBO1 030541Z 12011KT 23/16 A3017 RMK A01 T02270155  RH  064%=      5-min Rain = 0
KBO1 030542Z 12009KT 23/15 A3017 RMK A01 T02270154  RH  063%=      5-min Rain = 0
KBO1 030543Z 13010KT 23/15 A3017 RMK A01 T02270154  RH  063%=      5-min Rain = 0
KBO1 030544Z 12011KT 23/15 A3017 RMK A01 T02270154  RH  063%=      5-min Rain = 0
KBO1 030545Z 12012KT 23/16 A3017 RMK A01 T02270155  RH  063%=      5-min Rain = 0
KBO1 030546Z 12011KT 23/16 A3017 RMK A01 T02280155  RH  063%=      5-min Rain = 0
KBO1 030547Z 12011KT 23/15 A3017 RMK A01 T02280154  RH  063%=      5-min Rain = 0
KBO1 030548Z 12009KT 23/16 A3017 RMK A01 T02290155  RH  063%=      5-min Rain = 0
KBO1 030549Z 12011KT 23/16 A3017 RMK A01 T02280155  RH  063%=      5-min Rain = 0
KBO1 030550Z 12011KT 23/16 A3018 RMK A01 T02290155  RH  063%=      5-min Rain = 0
KBO1 030551Z 12012KT 23/16 A3018 RMK A01 T02280155  RH  063%=      5-min Rain = 0
KBO1 030552Z 12013KT 23/16 A3018 RMK A01 T02290155  RH  063%=      5-min Rain = 0
KBO1 030553Z 12010KT 23/16 A3018 RMK A01 T02290155  RH  063%=      5-min Rain = 0
KBO1 030554Z 12010KT 23/16 A3018 RMK A01 T02300155  RH  063%=      5-min Rain = 0
KBO1 030555Z 12012KT 23/16 A3018 RMK A01 T02300155  RH  063%=      5-min Rain = 0
KBO1 030556Z 13013KT 23/16 A3018 RMK A01 T02300155  RH  063%=      5-min Rain = 0
KBO1 030557Z 13011KT 23/16 A3018 RMK A01 T02310156  RH  063%=      5-min Rain = 0
KBO1 030558Z 13011KT 23/16 A3018 RMK A01 T02310156  RH  062%=      5-min Rain = 0
KBO1 030559Z 13012KT 23/16 A3018 RMK A01 T02320156  RH  062%=      5-min Rain = 0
KBO1 030600Z 13013KT 23/16 A3018 RMK A01 T02320156  RH  062%=      5-min Rain = 0
KBO1 030601Z 13013KT 23/16 A3018 RMK A01 T02320156  RH  062%=      5-min Rain = 0
KBO1 030602Z 13012KT 23/16 A3018 RMK A01 T02320156  RH  062%=      5-min Rain = 0
KBO1 030603Z 13013KT 23/16 A3018 RMK A01 T02320157  RH  062%=      5-min Rain = 0
KBO1 030604Z 13012KT 23/16 A3018 RMK A01 T02320157  RH  063%=      5-min Rain = 0
KBO1 030605Z 13014KT 23/16 A3018 RMK A01 T02320157  RH  063%=      5-min Rain = 0
KBO1 030606Z 14015KT 23/16 A3018 RMK A01 T02320158  RH  063%=      5-min Rain = 0
KBO1 030607Z 14012KT 23/16 A3018 RMK A01 T02330158  RH  063%=      5-min Rain = 0
KBO1 030608Z 14014KT 23/16 A3018 RMK A01 T02330159  RH  063%=      5-min Rain = 0
KBO1 030609Z 14015KT 23/16 A3018 RMK A01 T02320159  RH  063%=      5-min Rain = 0
KBO1 030610Z 13014KT 23/16 A3018 RMK A01 T02320159  RH  064%=      5-min Rain = 0
KBO1 030611Z 13012KT 23/16 A3018 RMK A01 T02320159  RH  064%=      5-min Rain = 0
KBO1 030612Z 14012KT 23/16 A3018 RMK A01 T02320160  RH  064%=      5-min Rain = 0
KBO1 030613Z 14013KT 23/16 A3018 RMK A01 T02310160  RH  064%=      5-min Rain = 0
KBO1 030614Z 14014KT 23/16 A3018 RMK A01 T02310160  RH  064%=      5-min Rain = 0
KBO1 030615Z 13014KT 23/16 A3018 RMK A01 T02310161  RH  065%=      5-min Rain = 0
KBO1 030616Z 14015KT 23/16 A3017 RMK A01 T02310161  RH  065%=      5-min Rain = 0
KBO1 030617Z 13013KT 23/16 A3017 RMK A01 T02310162  RH  065%=      5-min Rain = 0
KBO1 030618Z 14015KT 23/16 A3017 RMK A01 T02310161  RH  065%=      5-min Rain = 0
KBO1 030619Z 14016KT 23/16 A3017 RMK A01 T02310162  RH  065%=      5-min Rain = 0
KBO1 030620Z 14014KT 23/16 A3017 RMK A01 T02320162  RH  065%=      5-min Rain = 0
KBO1 030621Z 14014KT 23/16 A3017 RMK A01 T02320162  RH  065%=      5-min Rain = 0
KBO1 030622Z 13016KT 23/16 A3017 RMK A01 T02320162  RH  065%=      5-min Rain = 0
KBO1 030623Z 13016KT 23/16 A3017 RMK A01 T02320162  RH  065%=      5-min Rain = 0
KBO1 030624Z 13015KT 23/16 A3017 RMK A01 T02320163  RH  065%=      5-min Rain = 0
KBO1 030625Z 13015KT 23/16 A3017 RMK A01 T02310163  RH  065%=      5-min Rain = 0
KBO1 030626Z 13016KT 23/16 A3017 RMK A01 T02310163  RH  065%=      5-min Rain = 0
KBO1 030627Z 13016KT 23/16 A3016 RMK A01 T02310163  RH  066%=      5-min Rain = 0
KBO1 030628Z 13015KT 23/16 A3016 RMK A01 T02310163  RH  066%=      5-min Rain = 0
KBO1 030629Z 13015KT 23/16 A3016 RMK A01 T02300163  RH  066%=      5-min Rain = 0
KBO1 030630Z 13017KT 23/16 A3016 RMK A01 T02300163  RH  066%=      5-min Rain = 0
KBO1 030631Z 13017KT 23/16 A3016 RMK A01 T02300164  RH  066%=      5-min Rain = 0
KBO1 030632Z 13015KT 23/16 A3016 RMK A01 T02300163  RH  066%=      5-min Rain = 0
KBO1 030633Z 13015KT 23/16 A3016 RMK A01 T02290164  RH  066%=      5-min Rain = 0
KBO1 030634Z 13015G20KT 23/16 A3016 RMK A01 T02280164  RH  067%=      5-min Rain = 0
KBO1 030635Z 13016KT 23/16 A3016 RMK A01 T02280164  RH  067%=      5-min Rain = 0
KBO1 030636Z 13015KT 23/16 A3016 RMK A01 T02280164  RH  067%=      5-min Rain = 0
KBO1 030637Z 13014KT 23/16 A3016 RMK A01 T02270164  RH  068%=      5-min Rain = 0
KBO1 030638Z 12015KT 23/16 A3016 RMK A01 T02270164  RH  068%=      5-min Rain = 0
KBO1 030639Z 13013KT 23/16 A3016 RMK A01 T02260164  RH  068%=      5-min Rain = 0
KBO1 030640Z 12013KT 23/16 A3016 RMK A01 T02250164  RH  068%=      5-min Rain = 0
KBO1 030641Z 12013KT 23/16 A3016 RMK A01 T02250164  RH  069%=      5-min Rain = 0
KBO1 030642Z 12014KT 22/17 A3016 RMK A01 T02240165  RH  069%=      5-min Rain = 0
KBO1 030643Z 12013KT 22/17 A3016 RMK A01 T02240165  RH  069%=      5-min Rain = 0
KBO1 030644Z 12012KT 22/17 A3016 RMK A01 T02230165  RH  070%=      5-min Rain = 0
KBO1 030645Z 12012KT 22/17 A3016 RMK A01 T02220165  RH  070%=      5-min Rain = 0
KBO1 030646Z 12012KT 22/17 A3016 RMK A01 T02220165  RH  070%=      5-min Rain = 0
KBO1 030647Z 13011KT 22/17 A3016 RMK A01 T02210165  RH  070%=      5-min Rain = 0
KBO1 030648Z 13011KT 22/17 A3016 RMK A01 T02200165  RH  071%=      5-min Rain = 0
KBO1 030649Z 12012KT 22/17 A3016 RMK A01 T02200165  RH  071%=      5-min Rain = 0
KBO1 030650Z 13011KT 22/17 A3016 RMK A01 T02190165  RH  071%=      5-min Rain = 0
KBO1 030651Z 13011KT 22/17 A3016 RMK A01 T02190165  RH  072%=      5-min Rain = 0
KBO1 030652Z 13011KT 22/17 A3016 RMK A01 T02180165  RH  072%=      5-min Rain = 0
KBO1 030653Z 13011KT 22/17 A3016 RMK A01 T02180165  RH  072%=      5-min Rain = 0
KBO1 030654Z 13011KT 22/17 A3016 RMK A01 T02170165  RH  072%=      5-min Rain = 0
KBO1 030655Z 13010KT 22/17 A3016 RMK A01 T02170166  RH  073%=      5-min Rain = 0
KBO1 030656Z 13011KT 22/17 A3016 RMK A01 T02160165  RH  073%=      5-min Rain = 0
KBO1 030657Z 13011KT 22/17 A3015 RMK A01 T02160166  RH  073%=      5-min Rain = 0
KBO1 030658Z 13011KT 22/17 A3015 RMK A01 T02160166  RH  073%=      5-min Rain = 0
KBO1 030659Z 13011KT 22/17 A3015 RMK A01 T02150166  RH  074%=      5-min Rain = 0
KBO1 030700Z 13012KT 22/17 A3015 RMK A01 T02150166  RH  074%=      5-min Rain = 0
KBO1 030701Z 13011KT 22/17 A3015 RMK A01 T02150166  RH  074%=      5-min Rain = 0
KBO1 030702Z 13011KT 21/17 A3015 RMK A01 T02140166  RH  074%=      5-min Rain = 0
KBO1 030703Z 13010KT 21/17 A3015 RMK A01 T02140166  RH  074%=      5-min Rain = 0
KBO1 030704Z 13011KT 21/17 A3015 RMK A01 T02130166  RH  075%=      5-min Rain = 0
KBO1 030705Z 14010KT 21/17 A3015 RMK A01 T02130166  RH  075%=      5-min Rain = 0
KBO1 030706Z 14010KT 21/17 A3015 RMK A01 T02120167  RH  075%=      5-min Rain = 0
KBO1 030707Z 14010KT 21/17 A3015 RMK A01 T02120167  RH  075%=      5-min Rain = 0
KBO1 030708Z 14009KT 21/17 A3015 RMK A01 T02120166  RH  075%=      5-min Rain = 0
KBO1 030709Z 14010KT 21/17 A3015 RMK A01 T02110166  RH  076%=      5-min Rain = 0
KBO1 030710Z 14010KT 21/17 A3015 RMK A01 T02110167  RH  076%=      5-min Rain = 0
KBO1 030711Z 14010KT 21/17 A3015 RMK A01 T02110167  RH  076%=      5-min Rain = 0
KBO1 030712Z 14010KT 21/17 A3015 RMK A01 T02100167  RH  076%=      5-min Rain = 0
KBO1 030713Z 14010KT 21/17 A3015 RMK A01 T02110167  RH  076%=      5-min Rain = 0
KBO1 030714Z 14010KT 21/17 A3015 RMK A01 T02110167  RH  076%=      5-min Rain = 0
KBO1 030715Z 14010KT 21/17 A3015 RMK A01 T02110167  RH  076%=      5-min Rain = 0
KBO1 030716Z 14010KT 21/17 A3015 RMK A01 T02110167  RH  076%=      5-min Rain = 0
KBO1 030717Z 15011KT 21/17 A3015 RMK A01 T02110167  RH  076%=      5-min Rain = 0
KBO1 030718Z 14009KT 21/17 A3015 RMK A01 T02120167  RH  076%=      5-min Rain = 0
KBO1 030719Z 14012KT 21/17 A3015 RMK A01 T02120167  RH  076%=      5-min Rain = 0
KBO1 030720Z 14012KT 21/17 A3015 RMK A01 T02130168  RH  076%=      5-min Rain = 0
KBO1 030721Z 15011KT 21/17 A3016 RMK A01 T02140168  RH  075%=      5-min Rain = 0
KBO1 030722Z 15013KT 21/17 A3016 RMK A01 T02140168  RH  075%=      5-min Rain = 0
KBO1 030723Z 14013KT 21/17 A3015 RMK A01 T02140168  RH  075%=      5-min Rain = 0
KBO1 030724Z 15013KT 22/17 A3015 RMK A01 T02150169  RH  075%=      5-min Rain = 0
KBO1 030725Z 14013KT 22/17 A3015 RMK A01 T02160169  RH  074%=      5-min Rain = 0
KBO1 030726Z 14013KT 22/17 A3015 RMK A01 T02160169  RH  074%=      5-min Rain = 0
KBO1 030727Z 15013KT 22/17 A3015 RMK A01 T02170169  RH  074%=      5-min Rain = 0
KBO1 030728Z 15013KT 22/17 A3015 RMK A01 T02170169  RH  074%=      5-min Rain = 0
KBO1 030729Z 14012KT 22/17 A3015 RMK A01 T02170169  RH  074%=      5-min Rain = 0
KBO1 030730Z 15013KT 22/17 A3015 RMK A01 T02170169  RH  074%=      5-min Rain = 0
KBO1 030731Z 14013KT 22/17 A3015 RMK A01 T02170169  RH  074%=      5-min Rain = 0
KBO1 030732Z 15013KT 22/17 A3015 RMK A01 T02170169  RH  074%=      5-min Rain = 0
KBO1 030733Z 15014KT 22/17 A3015 RMK A01 T02170170  RH  074%=      5-min Rain = 0
KBO1 030734Z 15012KT 22/17 A3015 RMK A01 T02170170  RH  074%=      5-min Rain = 0
KBO1 030735Z 14013KT 22/17 A3015 RMK A01 T02170169  RH  074%=      5-min Rain = 0
KBO1 030736Z 14013KT 22/17 A3015 RMK A01 T02170169  RH  074%=      5-min Rain = 0
KBO1 030737Z 15015KT 22/17 A3015 RMK A01 T02170170  RH  074%=      5-min Rain = 0
KBO1 030738Z 15015KT 22/17 A3015 RMK A01 T02170170  RH  075%=      5-min Rain = 0
KBO1 030739Z 15014KT 22/17 A3015 RMK A01 T02170170  RH  075%=      5-min Rain = 0
KBO1 030740Z 15013KT 22/17 A3015 RMK A01 T02170170  RH  075%=      5-min Rain = 0
KBO1 030741Z 15014KT 22/17 A3015 RMK A01 T02170170  RH  075%=      5-min Rain = 0
KBO1 030742Z 15013KT 22/17 A3015 RMK A01 T02160170  RH  075%=      5-min Rain = 0
KBO1 030743Z 15013KT 22/17 A3015 RMK A01 T02160171  RH  075%=      5-min Rain = 0
KBO1 030744Z 15011KT 22/17 A3015 RMK A01 T02150170  RH  075%=      5-min Rain = 0
KBO1 030745Z 15012KT 22/17 A3015 RMK A01 T02150170  RH  075%=      5-min Rain = 0
KBO1 030746Z 15010KT 22/17 A3015 RMK A01 T02150170  RH  076%=      5-min Rain = 0
KBO1 030747Z 15012KT 21/17 A3015 RMK A01 T02140170  RH  076%=      5-min Rain = 0
KBO1 030748Z 15012KT 21/17 A3015 RMK A01 T02140170  RH  076%=      5-min Rain = 0
KBO1 030749Z 15011KT 21/17 A3015 RMK A01 T02140170  RH  076%=      5-min Rain = 0
KBO1 030750Z 15012KT 21/17 A3015 RMK A01 T02140170  RH  076%=      5-min Rain = 0
KBO1 030751Z 16012KT 21/17 A3015 RMK A01 T02140170  RH  076%=      5-min Rain = 0
KBO1 030752Z 16012KT 21/17 A3015 RMK A01 T02140171  RH  076%=      5-min Rain = 0
KBO1 030753Z 16012KT 21/17 A3015 RMK A01 T02130170  RH  077%=      5-min Rain = 0
KBO1 030754Z 16011KT 21/17 A3015 RMK A01 T02130171  RH  077%=      5-min Rain = 0
KBO1 030755Z 16011KT 21/17 A3015 RMK A01 T02130170  RH  076%=      5-min Rain = 0
KBO1 030756Z 16011KT 21/17 A3015 RMK A01 T02130171  RH  077%=      5-min Rain = 0
KBO1 030757Z 16013KT 21/17 A3015 RMK A01 T02130171  RH  077%=      5-min Rain = 0
KBO1 030758Z 17013KT 21/17 A3015 RMK A01 T02130171  RH  077%=      5-min Rain = 0
KBO1 030759Z 17012KT 21/17 A3015 RMK A01 T02130171  RH  077%=      5-min Rain = 0
KBO1 030800Z 17013KT 21/17 A3015 RMK A01 T02130171  RH  077%=      5-min Rain = 0
KBO1 030801Z 17012KT 21/17 A3015 RMK A01 T02130170  RH  076%=      5-min Rain = 0
KBO1 030802Z 16010KT 21/17 A3015 RMK A01 T02130170  RH  076%=      5-min Rain = 0
KBO1 030803Z 17010KT 21/17 A3015 RMK A01 T02130170  RH  076%=      5-min Rain = 0
KBO1 030804Z 17010KT 21/17 A3015 RMK A01 T02130170  RH  076%=      5-min Rain = 0
KBO1 030805Z 17011KT 21/17 A3015 RMK A01 T02120169  RH  076%=      5-min Rain = 0
KBO1 030806Z 18010KT 21/17 A3015 RMK A01 T02120169  RH  076%=      5-min Rain = 0
KBO1 030807Z 17009KT 21/17 A3015 RMK A01 T02120169  RH  076%=      5-min Rain = 0
KBO1 030808Z 17010KT 21/17 A3015 RMK A01 T02120168  RH  076%=      5-min Rain = 0
KBO1 030809Z 17010KT 21/17 A3015 RMK A01 T02110168  RH  076%=      5-min Rain = 0
KBO1 030810Z 17010KT 21/17 A3015 RMK A01 T02120168  RH  076%=      5-min Rain = 0
KBO1 030811Z 17010KT 21/17 A3015 RMK A01 T02110168  RH  076%=      5-min Rain = 0
KBO1 030812Z 17009KT 21/17 A3015 RMK A01 T02120168  RH  076%=      5-min Rain = 0
KBO1 030813Z 17010KT 21/17 A3015 RMK A01 T02120168  RH  076%=      5-min Rain = 0
KBO1 030814Z 17011KT 21/17 A3015 RMK A01 T02110168  RH  076%=      5-min Rain = 0
KBO1 030815Z 17010KT 21/17 A3015 RMK A01 T02110168  RH  076%=      5-min Rain = 0
KBO1 030816Z 17009KT 21/17 A3015 RMK A01 T02120168  RH  076%=      5-min Rain = 0
KBO1 030817Z 17010KT 21/17 A3014 RMK A01 T02120168  RH  076%=      5-min Rain = 0
KBO1 030818Z 18010KT 21/17 A3014 RMK A01 T02110168  RH  076%=      5-min Rain = 0
KBO1 030819Z 17010KT 21/17 A3014 RMK A01 T02110168  RH  076%=      5-min Rain = 0
KBO1 030820Z 18010KT 21/17 A3014 RMK A01 T02110168  RH  076%=      5-min Rain = 0
KBO1 030821Z 18009KT 21/17 A3014 RMK A01 T02110168  RH  076%=      5-min Rain = 0
KBO1 030822Z 18011KT 21/17 A3014 RMK A01 T02110167  RH  076%=      5-min Rain = 0
KBO1 030823Z 18011KT 21/17 A3014 RMK A01 T02110168  RH  076%=      5-min Rain = 0
KBO1 030824Z 18010KT 21/17 A3014 RMK A01 T02110167  RH  076%=      5-min Rain = 0
KBO1 030825Z 18012KT 21/17 A3014 RMK A01 T02100167  RH  076%=      5-min Rain = 0
KBO1 030826Z 18011KT 21/17 A3015 RMK A01 T02100167  RH  076%=      5-min Rain = 0
KBO1 030827Z 18012KT 21/17 A3015 RMK A01 T02110167  RH  076%=      5-min Rain = 0
KBO1 030828Z 18011KT 21/17 A3015 RMK A01 T02100166  RH  076%=      5-min Rain = 0
KBO1 030829Z 18011KT 21/17 A3015 RMK A01 T02110166  RH  076%=      5-min Rain = 0
KBO1 030830Z 18010KT 21/17 A3015 RMK A01 T02100166  RH  076%=      5-min Rain = 0
KBO1 030831Z 18010KT 21/17 A3015 RMK A01 T02100166  RH  076%=      5-min Rain = 0
KBO1 030832Z 18011KT 21/17 A3015 RMK A01 T02100166  RH  076%=      5-min Rain = 0
KBO1 030833Z 18011KT 21/17 A3014 RMK A01 T02100165  RH  076%=      5-min Rain = 0
KBO1 030834Z 18013KT 21/17 A3014 RMK A01 T02100165  RH  076%=      5-min Rain = 0
KBO1 030835Z 18014KT 21/16 A3014 RMK A01 T02100164  RH  075%=      5-min Rain = 0
KBO1 030836Z 18014KT 21/16 A3014 RMK A01 T02100164  RH  075%=      5-min Rain = 0
KBO1 030837Z 18012KT 21/16 A3014 RMK A01 T02100163  RH  075%=      5-min Rain = 0
KBO1 030838Z 18011KT 21/16 A3014 RMK A01 T02100163  RH  075%=      5-min Rain = 0
KBO1 030839Z 18011KT 21/16 A3014 RMK A01 T02090163  RH  075%=      5-min Rain = 0
KBO1 030840Z 17010KT 21/16 A3014 RMK A01 T02090163  RH  075%=      5-min Rain = 0
KBO1 030841Z 17010KT 21/16 A3014 RMK A01 T02090163  RH  075%=      5-min Rain = 0
KBO1 030842Z 18009KT 21/16 A3014 RMK A01 T02080162  RH  075%=      5-min Rain = 0
KBO1 030843Z 18010KT 21/16 A3014 RMK A01 T02080161  RH  075%=      5-min Rain = 0
KBO1 030844Z 17011KT 21/16 A3014 RMK A01 T02080160  RH  074%=      5-min Rain = 0
KBO1 030845Z 17012KT 21/16 A3014 RMK A01 T02070159  RH  074%=      5-min Rain = 0
KBO1 030846Z 17011KT 21/16 A3014 RMK A01 T02070159  RH  074%=      5-min Rain = 0
KBO1 030847Z 17011KT 21/16 A3014 RMK A01 T02070158  RH  073%=      5-min Rain = 0
KBO1 030848Z 17011KT 21/16 A3014 RMK A01 T02070157  RH  073%=      5-min Rain = 0
KBO1 030849Z 17011KT 21/16 A3014 RMK A01 T02070157  RH  073%=      5-min Rain = 0
KBO1 030850Z 17011KT 21/16 A3014 RMK A01 T02070157  RH  073%=      5-min Rain = 0
KBO1 030851Z 17010KT 21/16 A3014 RMK A01 T02070157  RH  073%=      5-min Rain = 0
KBO1 030852Z 17012KT 21/16 A3014 RMK A01 T02060156  RH  073%=      5-min Rain = 0
KBO1 030853Z 17012KT 21/15 A3014 RMK A01 T02060154  RH  072%=      5-min Rain = 0
KBO1 030854Z 17013KT 21/15 A3014 RMK A01 T02060153  RH  072%=      5-min Rain = 0
KBO1 030855Z 17013KT 21/15 A3014 RMK A01 T02060152  RH  071%=      5-min Rain = 0
KBO1 030856Z 18013KT 21/15 A3014 RMK A01 T02060151  RH  071%=      5-min Rain = 0
KBO1 030857Z 18012KT 21/15 A3014 RMK A01 T02060150  RH  070%=      5-min Rain = 0
KBO1 030858Z 18012KT 21/15 A3014 RMK A01 T02060150  RH  070%=      5-min Rain = 0
KBO1 030859Z 18013KT 21/15 A3014 RMK A01 T02050149  RH  070%=      5-min Rain = 0
KBO1 030900Z 18012KT 21/15 A3013 RMK A01 T02050148  RH  070%=      5-min Rain = 0
KBO1 030901Z 18012KT 21/15 A3013 RMK A01 T02050148  RH  070%=      5-min Rain = 0
KBO1 030902Z 17013KT 21/15 A3013 RMK A01 T02050148  RH  070%=      5-min Rain = 0
KBO1 030903Z 17013KT 21/15 A3014 RMK A01 T02050147  RH  070%=      5-min Rain = 0
KBO1 030904Z 18013KT 21/15 A3014 RMK A01 T02050148  RH  070%=      5-min Rain = 0
KBO1 030905Z 18013KT 20/15 A3014 RMK A01 T02040147  RH  070%=      5-min Rain = 0
KBO1 030906Z 18012KT 20/15 A3014 RMK A01 T02040147  RH  070%=      5-min Rain = 0
KBO1 030907Z 18013KT 20/15 A3014 RMK A01 T02030147  RH  070%=      5-min Rain = 0
KBO1 030908Z 18012KT 20/15 A3014 RMK A01 T02030147  RH  070%=      5-min Rain = 0
KBO1 030909Z 18011KT 20/15 A3013 RMK A01 T02020147  RH  070%=      5-min Rain = 0
KBO1 030910Z 18012KT 20/15 A3013 RMK A01 T02020147  RH  071%=      5-min Rain = 0
KBO1 030911Z 18012KT 20/15 A3014 RMK A01 T02010146  RH  071%=      5-min Rain = 0
KBO1 030912Z 19013KT 20/15 A3014 RMK A01 T02000146  RH  071%=      5-min Rain = 0
KBO1 030913Z 19012KT 20/15 A3013 RMK A01 T02000146  RH  071%=      5-min Rain = 0
KBO1 030914Z 19013KT 20/15 A3013 RMK A01 T02000146  RH  071%=      5-min Rain = 0
KBO1 030915Z 19012KT 20/15 A3013 RMK A01 T02000147  RH  071%=      5-min Rain = 0
KBO1 030916Z 19012KT 20/15 A3013 RMK A01 T02000146  RH  071%=      5-min Rain = 0
KBO1 030917Z 19012KT 20/15 A3013 RMK A01 T01990146  RH  071%=      5-min Rain = 0
KBO1 030918Z 19013KT 20/15 A3013 RMK A01 T01990145  RH  071%=      5-min Rain = 0
KBO1 030919Z 19013KT 20/15 A3013 RMK A01 T01990145  RH  071%=      5-min Rain = 0
KBO1 030920Z 19012KT 20/15 A3013 RMK A01 T01980145  RH  071%=      5-min Rain = 0
KBO1 030921Z 19013KT 20/15 A3013 RMK A01 T01980145  RH  071%=      5-min Rain = 0
KBO1 030922Z 19013KT 20/15 A3013 RMK A01 T01980145  RH  071%=      5-min Rain = 0
KBO1 030923Z 19013KT 20/14 A3013 RMK A01 T01980144  RH  071%=      5-min Rain = 0
KBO1 030924Z 19012KT 20/14 A3013 RMK A01 T01970144  RH  071%=      5-min Rain = 0
KBO1 030925Z 19012KT 20/14 A3013 RMK A01 T01970144  RH  072%=      5-min Rain = 0
KBO1 030926Z 19012KT 20/14 A3013 RMK A01 T01960144  RH  072%=      5-min Rain = 0
KBO1 030927Z 19012KT 20/14 A3013 RMK A01 T01960144  RH  072%=      5-min Rain = 0
KBO1 030928Z 19012KT 20/14 A3013 RMK A01 T01950144  RH  072%=      5-min Rain = 0
KBO1 030929Z 19011KT 20/14 A3013 RMK A01 T01950144  RH  073%=      5-min Rain = 0
KBO1 030930Z 20012KT 19/14 A3013 RMK A01 T01940144  RH  073%=      5-min Rain = 0
KBO1 030931Z 19011KT 19/14 A3013 RMK A01 T01930144  RH  073%=      5-min Rain = 0
KBO1 030932Z 19011KT 19/14 A3013 RMK A01 T01930143  RH  073%=      5-min Rain = 0
KBO1 030933Z 20011KT 19/14 A3013 RMK A01 T01930143  RH  073%=      5-min Rain = 0
KBO1 030934Z 19011KT 19/14 A3013 RMK A01 T01920143  RH  073%=      5-min Rain = 0
KBO1 030935Z 19012KT 19/14 A3013 RMK A01 T01920143  RH  073%=      5-min Rain = 0
KBO1 030936Z 20011KT 19/14 A3013 RMK A01 T01920143  RH  073%=      5-min Rain = 0
KBO1 030937Z 20010KT 19/14 A3013 RMK A01 T01920143  RH  073%=      5-min Rain = 0
KBO1 030938Z 20011KT 19/14 A3013 RMK A01 T01910142  RH  073%=      5-min Rain = 0
KBO1 030939Z 20010KT 19/14 A3012 RMK A01 T01910142  RH  073%=      5-min Rain = 0
KBO1 030940Z 20011KT 19/14 A3013 RMK A01 T01900142  RH  073%=      5-min Rain = 0
KBO1 030941Z 20010KT 19/14 A3013 RMK A01 T01900142  RH  074%=      5-min Rain = 0
KBO1 030942Z 20010KT 19/14 A3013 RMK A01 T01900142  RH  073%=      5-min Rain = 0
KBO1 030943Z 20010KT 19/14 A3013 RMK A01 T01900142  RH  074%=      5-min Rain = 0
KBO1 030944Z 20009KT 19/14 A3013 RMK A01 T01900142  RH  074%=      5-min Rain = 0
KBO1 030945Z 20009KT 19/14 A3013 RMK A01 T01900141  RH  073%=      5-min Rain = 0
KBO1 030946Z 20008KT 19/14 A3013 RMK A01 T01890141  RH  073%=      5-min Rain = 0
KBO1 030947Z 20008KT 19/14 A3013 RMK A01 T01890141  RH  074%=      5-min Rain = 0
KBO1 030948Z 20009KT 19/14 A3013 RMK A01 T01880141  RH  074%=      5-min Rain = 0
KBO1 030949Z 20008KT 19/14 A3013 RMK A01 T01880141  RH  074%=      5-min Rain = 0
KBO1 030950Z 21009KT 19/14 A3013 RMK A01 T01880141  RH  074%=      5-min Rain = 0
KBO1 030951Z 21008KT 19/14 A3013 RMK A01 T01870141  RH  074%=      5-min Rain = 0
KBO1 030952Z 21008KT 19/14 A3013 RMK A01 T01870141  RH  074%=      5-min Rain = 0
KBO1 030953Z 21009KT 19/14 A3013 RMK A01 T01860140  RH  075%=      5-min Rain = 0
KBO1 030954Z 21009KT 19/14 A3013 RMK A01 T01860140  RH  075%=      5-min Rain = 0
KBO1 030955Z 21009KT 19/14 A3013 RMK A01 T01860140  RH  075%=      5-min Rain = 0
KBO1 030956Z 21009KT 19/14 A3013 RMK A01 T01850140  RH  075%=      5-min Rain = 0
KBO1 030957Z 21009KT 19/14 A3013 RMK A01 T01850140  RH  075%=      5-min Rain = 0
KBO1 030958Z 21008KT 18/14 A3013 RMK A01 T01840139  RH  075%=      5-min Rain = 0
KBO1 030959Z 21008KT 18/14 A3013 RMK A01 T01840139  RH  075%=      5-min Rain = 0
KBO1 031000Z 21008KT 18/14 A3013 RMK A01 T01840139  RH  075%=      5-min Rain = 0
KBO1 031001Z 21008KT 18/14 A3013 RMK A01 T01830139  RH  075%=      5-min Rain = 0
KBO1 031002Z 22008KT 18/14 A3013 RMK A01 T01830139  RH  075%=      5-min Rain = 0
KBO1 031003Z 22008KT 18/14 A3013 RMK A01 T01830138  RH  075%=      5-min Rain = 0
KBO1 031004Z 22008KT 18/14 A3013 RMK A01 T01830138  RH  075%=      5-min Rain = 0
KBO1 031005Z 22008KT 18/14 A3013 RMK A01 T01830138  RH  075%=      5-min Rain = 0
KBO1 031006Z 22008KT 18/14 A3013 RMK A01 T01830138  RH  075%=      5-min Rain = 0
KBO1 031007Z 22008KT 18/14 A3013 RMK A01 T01830138  RH  075%=      5-min Rain = 0
KBO1 031008Z 22009KT 18/14 A3013 RMK A01 T01830138  RH  075%=      5-min Rain = 0
KBO1 031009Z 22009KT 18/14 A3013 RMK A01 T01830137  RH  075%=      5-min Rain = 0
KBO1 031010Z 22009KT 18/14 A3013 RMK A01 T01820137  RH  075%=      5-min Rain = 0
KBO1 031011Z 22009KT 18/14 A3013 RMK A01 T01820137  RH  075%=      5-min Rain = 0
KBO1 031012Z 22009KT 18/14 A3013 RMK A01 T01810137  RH  075%=      5-min Rain = 0
KBO1 031013Z 22009KT 18/14 A3013 RMK A01 T01810137  RH  075%=      5-min Rain = 0
KBO1 031014Z 22009KT 18/14 A3013 RMK A01 T01810137  RH  075%=      5-min Rain = 0
KBO1 031015Z 22010KT 18/14 A3013 RMK A01 T01820137  RH  075%=      5-min Rain = 0
KBO1 031016Z 22010KT 18/14 A3013 RMK A01 T01830137  RH  074%=      5-min Rain = 0
KBO1 031017Z 22010KT 18/14 A3013 RMK A01 T01840137  RH  074%=      5-min Rain = 0
KBO1 031018Z 22010KT 19/14 A3013 RMK A01 T01850137  RH  074%=      5-min Rain = 0
KBO1 031019Z 22010KT 19/14 A3013 RMK A01 T01860138  RH  074%=      5-min Rain = 0
KBO1 031020Z 22010KT 19/14 A3013 RMK A01 T01860138  RH  073%=      5-min Rain = 0
KBO1 031021Z 22010KT 19/14 A3013 RMK A01 T01870137  RH  073%=      5-min Rain = 0
KBO1 031022Z 22010KT 19/14 A3013 RMK A01 T01870137  RH  073%=      5-min Rain = 0
KBO1 031023Z 22010KT 19/14 A3013 RMK A01 T01870138  RH  073%=      5-min Rain = 0
KBO1 031024Z 22010KT 19/14 A3013 RMK A01 T01880138  RH  073%=      5-min Rain = 0
KBO1 031025Z 22011KT 19/14 A3013 RMK A01 T01880138  RH  073%=      5-min Rain = 0
KBO1 031026Z 22011KT 19/14 A3013 RMK A01 T01880138  RH  072%=      5-min Rain = 0
KBO1 031027Z 22011KT 19/14 A3013 RMK A01 T01890138  RH  072%=      5-min Rain = 0
KBO1 031028Z 22011KT 19/14 A3013 RMK A01 T01900138  RH  072%=      5-min Rain = 0
KBO1 031029Z 22011KT 19/14 A3013 RMK A01 T01900138  RH  072%=      5-min Rain = 0
KBO1 031030Z 22010KT 19/14 A3013 RMK A01 T01900138  RH  071%=      5-min Rain = 0
KBO1 031031Z 22010KT 19/14 A3013 RMK A01 T01910137  RH  071%=      5-min Rain = 0
KBO1 031032Z 22010KT 19/14 A3013 RMK A01 T01910137  RH  071%=      5-min Rain = 0
KBO1 031033Z 22010KT 19/14 A3013 RMK A01 T01920137  RH  070%=      5-min Rain = 0
KBO1 031034Z 22011KT 19/14 A3013 RMK A01 T01930136  RH  070%=      5-min Rain = 0
KBO1 031035Z 22010KT 19/14 A3013 RMK A01 T01940136  RH  069%=      5-min Rain = 0
KBO1 031036Z 22010KT 19/14 A3013 RMK A01 T01940136  RH  069%=      5-min Rain = 0
KBO1 031037Z 22010KT 19/14 A3013 RMK A01 T01940136  RH  069%=      5-min Rain = 0
KBO1 031038Z 22010KT 19/14 A3013 RMK A01 T01940136  RH  069%=      5-min Rain = 0
KBO1 031039Z 22010KT 19/14 A3013 RMK A01 T01940136  RH  069%=      5-min Rain = 0
KBO1 031040Z 22010KT 19/14 A3013 RMK A01 T01940136  RH  069%=      5-min Rain = 0
KBO1 031041Z 23010KT 19/14 A3013 RMK A01 T01940135  RH  069%=      5-min Rain = 0
KBO1 031042Z 23010KT 19/14 A3013 RMK A01 T01940135  RH  069%=      5-min Rain = 0
KBO1 031043Z 22010KT 20/14 A3013 RMK A01 T01950136  RH  069%=      5-min Rain = 0
KBO1 031044Z 22010KT 19/14 A3013 RMK A01 T01940135  RH  068%=      5-min Rain = 0
KBO1 031045Z 23010KT 19/13 A3013 RMK A01 T01940134  RH  068%=      5-min Rain = 0
KBO1 031046Z 23010KT 19/13 A3013 RMK A01 T01940134  RH  068%=      5-min Rain = 0
KBO1 031047Z 23010KT 19/13 A3013 RMK A01 T01940133  RH  068%=      5-min Rain = 0
KBO1 031048Z 23010KT 19/13 A3013 RMK A01 T01940133  RH  068%=      5-min Rain = 0
KBO1 031049Z 23009KT 19/13 A3013 RMK A01 T01940133  RH  068%=      5-min Rain = 0
KBO1 031050Z 23009KT 19/13 A3013 RMK A01 T01940133  RH  068%=      5-min Rain = 0
KBO1 031051Z 23009KT 19/13 A3013 RMK A01 T01940133  RH  068%=      5-min Rain = 0
KBO1 031052Z 23010KT 19/13 A3013 RMK A01 T01930133  RH  068%=      5-min Rain = 0
KBO1 031053Z 23010KT 19/13 A3013 RMK A01 T01930133  RH  068%=      5-min Rain = 0
KBO1 031054Z 23010KT 19/13 A3013 RMK A01 T01920133  RH  068%=      5-min Rain = 0
KBO1 031055Z 23010KT 19/13 A3013 RMK A01 T01920133  RH  069%=      5-min Rain = 0
KBO1 031056Z 23010KT 19/13 A3013 RMK A01 T01910133  RH  069%=      5-min Rain = 0
KBO1 031057Z 23009KT 19/13 A3013 RMK A01 T01900132  RH  069%=      5-min Rain = 0
KBO1 031058Z 23009KT 19/13 A3013 RMK A01 T01900132  RH  069%=      5-min Rain = 0
KBO1 031059Z 23009KT 19/13 A3013 RMK A01 T01890132  RH  069%=      5-min Rain = 0
KBO1 031100Z 23010KT 19/13 A3013 RMK A01 T01880132  RH  070%=      5-min Rain = 0
KBO1 031101Z 23010KT 19/13 A3013 RMK A01 T01880132  RH  070%=      5-min Rain = 0
KBO1 031102Z 23010KT 19/13 A3013 RMK A01 T01870132  RH  070%=      5-min Rain = 0
KBO1 031103Z 23010KT 19/13 A3013 RMK A01 T01870133  RH  071%=      5-min Rain = 0
KBO1 031104Z 23010KT 19/13 A3013 RMK A01 T01870133  RH  071%=      5-min Rain = 0
KBO1 031105Z 23009KT 19/13 A3013 RMK A01 T01870134  RH  071%=      5-min Rain = 0
KBO1 031106Z 23010KT 19/13 A3013 RMK A01 T01870134  RH  071%=      5-min Rain = 0
KBO1 031107Z 23010KT 19/13 A3013 RMK A01 T01860134  RH  071%=      5-min Rain = 0
KBO1 031108Z 23010KT 19/13 A3013 RMK A01 T01860134  RH  072%=      5-min Rain = 0
KBO1 031109Z 24010KT 19/13 A3013 RMK A01 T01850134  RH  072%=      5-min Rain = 0
KBO1 031110Z 24010KT 19/13 A3013 RMK A01 T01850134  RH  072%=      5-min Rain = 0
KBO1 031111Z 24010KT 19/14 A3013 RMK A01 T01850135  RH  073%=      5-min Rain = 0
KBO1 031112Z 24010KT 19/14 A3013 RMK A01 T01850135  RH  073%=      5-min Rain = 0
KBO1 031113Z 24011KT 19/14 A3013 RMK A01 T01850136  RH  073%=      5-min Rain = 0
KBO1 031114Z 24011KT 19/14 A3013 RMK A01 T01860137  RH  073%=      5-min Rain = 0
KBO1 031115Z 24011KT 19/14 A3013 RMK A01 T01870137  RH  073%=      5-min Rain = 0
KBO1 031116Z 24010KT 19/14 A3013 RMK A01 T01880138  RH  073%=      5-min Rain = 0
KBO1 031117Z 24010KT 19/14 A3013 RMK A01 T01890139  RH  073%=      5-min Rain = 0
KBO1 031118Z 24011KT 19/14 A3013 RMK A01 T01890139  RH  073%=      5-min Rain = 0
KBO1 031119Z 24011KT 19/14 A3013 RMK A01 T01900140  RH  073%=      5-min Rain = 0
KBO1 031120Z 24011KT 19/14 A3013 RMK A01 T01900141  RH  073%=      5-min Rain = 0
KBO1 031121Z 23010KT 19/14 A3013 RMK A01 T01910141  RH  073%=      5-min Rain = 0
KBO1 031122Z 24011KT 19/14 A3013 RMK A01 T01910142  RH  073%=      5-min Rain = 0
KBO1 031123Z 24010KT 19/14 A3013 RMK A01 T01920142  RH  073%=      5-min Rain = 0
KBO1 031124Z 24010KT 19/14 A3013 RMK A01 T01920143  RH  073%=      5-min Rain = 0
KBO1 031125Z 24010KT 19/14 A3013 RMK A01 T01930144  RH  073%=      5-min Rain = 0
KBO1 031126Z 24011KT 19/15 A3013 RMK A01 T01940145  RH  073%=      5-min Rain = 0
KBO1 031127Z 24010KT 19/15 A3013 RMK A01 T01940145  RH  073%=      5-min Rain = 0
KBO1 031128Z 23011KT 20/15 A3013 RMK A01 T01950146  RH  073%=      5-min Rain = 0
KBO1 031129Z 23011KT 20/15 A3013 RMK A01 T01960147  RH  073%=      5-min Rain = 0
KBO1 031130Z 23010KT 20/15 A3013 RMK A01 T01980148  RH  073%=      5-min Rain = 0
KBO1 031131Z 23011KT 20/15 A3013 RMK A01 T01980149  RH  073%=      5-min Rain = 0
KBO1 031132Z 23010KT 20/15 A3013 RMK A01 T01990150  RH  073%=      5-min Rain = 0
KBO1 031133Z 23011KT 20/15 A3013 RMK A01 T02000150  RH  073%=      5-min Rain = 0
KBO1 031134Z 23010KT 20/15 A3013 RMK A01 T02010150  RH  073%=      5-min Rain = 0
KBO1 031135Z 23010KT 20/15 A3013 RMK A01 T02020151  RH  072%=      5-min Rain = 0
KBO1 031136Z 23010KT 20/15 A3013 RMK A01 T02020150  RH  072%=      5-min Rain = 0
KBO1 031137Z 23010KT 20/15 A3013 RMK A01 T02020150  RH  072%=      5-min Rain = 0
KBO1 031138Z 23009KT 20/15 A3013 RMK A01 T02020150  RH  072%=      5-min Rain = 0
KBO1 031139Z 23010KT 20/15 A3013 RMK A01 T02020150  RH  072%=      5-min Rain = 0
KBO1 031140Z 23009KT 20/15 A3014 RMK A01 T02020151  RH  072%=      5-min Rain = 0
KBO1 031141Z 23010KT 20/15 A3013 RMK A01 T02020151  RH  072%=      5-min Rain = 0
KBO1 031142Z 23010KT 20/15 A3014 RMK A01 T02020150  RH  072%=      5-min Rain = 0
KBO1 031143Z 23009KT 20/15 A3014 RMK A01 T02020150  RH  072%=      5-min Rain = 0
KBO1 031144Z 23009KT 20/15 A3014 RMK A01 T02020150  RH  072%=      5-min Rain = 0
KBO1 031145Z 23008KT 20/15 A3014 RMK A01 T02030151  RH  072%=      5-min Rain = 0
KBO1 031146Z 23009KT 20/15 A3014 RMK A01 T02020150  RH  072%=      5-min Rain = 0
KBO1 031147Z 23008KT 20/15 A3014 RMK A01 T02020150  RH  072%=      5-min Rain = 0
KBO1 031148Z 23009KT 20/15 A3014 RMK A01 T02030151  RH  072%=      5-min Rain = 0
KBO1 031149Z 23008KT 20/15 A3014 RMK A01 T02030150  RH  072%=      5-min Rain = 0
KBO1 031150Z 23009KT 20/15 A3014 RMK A01 T02030150  RH  072%=      5-min Rain = 0
KBO1 031151Z 23009KT 20/15 A3014 RMK A01 T02030151  RH  072%=      5-min Rain = 0
KBO1 031152Z 23008KT 20/15 A3014 RMK A01 T02040151  RH  072%=      5-min Rain = 0
KBO1 031153Z 23008KT 20/15 A3014 RMK A01 T02040151  RH  071%=      5-min Rain = 0
KBO1 031154Z 23008KT 20/15 A3014 RMK A01 T02040151  RH  071%=      5-min Rain = 0
KBO1 031155Z 23008KT 20/15 A3014 RMK A01 T02040151  RH  071%=      5-min Rain = 0
KBO1 031156Z 23007KT 21/15 A3014 RMK A01 T02050151  RH  071%=      5-min Rain = 0
KBO1 031157Z 23008KT 21/15 A3014 RMK A01 T02050151  RH  071%=      5-min Rain = 0
KBO1 031158Z 23007KT 21/15 A3015 RMK A01 T02050151  RH  071%=      5-min Rain = 0
KBO1 031159Z 23007KT 21/15 A3015 RMK A01 T02050151  RH  071%=      5-min Rain = 0
KBO1 031200Z 23007KT 21/15 A3015 RMK A01 T02050151  RH  071%=      5-min Rain = 0
KBO1 031201Z 23008KT 21/15 A3015 RMK A01 T02060151  RH  071%=      5-min Rain = 0
KBO1 031202Z 23008KT 21/15 A3015 RMK A01 T02060151  RH  071%=      5-min Rain = 0
KBO1 031203Z 22007KT 21/15 A3015 RMK A01 T02060151  RH  071%=      5-min Rain = 0
KBO1 031204Z 22007KT 21/15 A3015 RMK A01 T02060152  RH  071%=      5-min Rain = 0
KBO1 031205Z 23008KT 21/15 A3015 RMK A01 T02060152  RH  071%=      5-min Rain = 0
KBO1 031206Z 22007KT 21/15 A3015 RMK A01 T02070152  RH  071%=      5-min Rain = 0
KBO1 031207Z 22006KT 21/15 A3015 RMK A01 T02070151  RH  071%=      5-min Rain = 0
KBO1 031208Z 22007KT 21/15 A3015 RMK A01 T02080152  RH  071%=      5-min Rain = 0
KBO1 031209Z 21006KT 21/15 A3015 RMK A01 T02080152  RH  070%=      5-min Rain = 0
KBO1 031210Z 21007KT 21/15 A3015 RMK A01 T02080152  RH  070%=      5-min Rain = 0
KBO1 031211Z 20006KT 21/15 A3015 RMK A01 T02080152  RH  070%=      5-min Rain = 0
KBO1 031212Z 19006KT 21/15 A3015 RMK A01 T02090152  RH  070%=      5-min Rain = 0
KBO1 031213Z 19006KT 21/15 A3015 RMK A01 T02090152  RH  070%=      5-min Rain = 0
KBO1 031214Z 19007KT 21/15 A3015 RMK A01 T02090152  RH  070%=      5-min Rain = 0
KBO1 031215Z 18006KT 21/15 A3015 RMK A01 T02100152  RH  070%=      5-min Rain = 0
KBO1 031216Z 18007KT 21/15 A3015 RMK A01 T02100152  RH  069%=      5-min Rain = 0
KBO1 031217Z 18007KT 21/15 A3015 RMK A01 T02100152  RH  069%=      5-min Rain = 0
KBO1 031218Z 19007KT 21/15 A3016 RMK A01 T02110152  RH  069%=      5-min Rain = 0
KBO1 031219Z 19007KT 21/15 A3016 RMK A01 T02120152  RH  069%=      5-min Rain = 0
KBO1 031220Z 19008KT 21/15 A3016 RMK A01 T02120152  RH  068%=      5-min Rain = 0
KBO1 031221Z 20008KT 21/15 A3016 RMK A01 T02120151  RH  068%=      5-min Rain = 0
KBO1 031222Z 20008KT 21/15 A3016 RMK A01 T02130151  RH  068%=      5-min Rain = 0
KBO1 031223Z 20008KT 21/15 A3016 RMK A01 T02140151  RH  068%=      5-min Rain = 0
KBO1 031224Z 20008KT 21/15 A3016 RMK A01 T02140151  RH  067%=      5-min Rain = 0
KBO1 031225Z 20008KT 22/15 A3016 RMK A01 T02150151  RH  067%=      5-min Rain = 0
KBO1 031226Z 20007KT 22/15 A3016 RMK A01 T02150151  RH  067%=      5-min Rain = 0
KBO1 031227Z 20008KT 22/15 A3016 RMK A01 T02160151  RH  066%=      5-min Rain = 0
KBO1 031228Z 20007KT 22/15 A3016 RMK A01 T02170151  RH  066%=      5-min Rain = 0
KBO1 031229Z 21008KT 22/15 A3016 RMK A01 T02170151  RH  066%=      5-min Rain = 0
KBO1 031230Z 21008KT 22/15 A3016 RMK A01 T02170151  RH  066%=      5-min Rain = 0
KBO1 031231Z 21008KT 22/15 A3015 RMK A01 T02180151  RH  066%=      5-min Rain = 0
KBO1 031232Z 21008KT 22/15 A3015 RMK A01 T02180150  RH  065%=      5-min Rain = 0
KBO1 031233Z 21008KT 22/15 A3015 RMK A01 T02180150  RH  065%=      5-min Rain = 0
KBO1 031234Z 21007KT 22/15 A3015 RMK A01 T02180150  RH  065%=      5-min Rain = 0
KBO1 031235Z 21008KT 22/15 A3015 RMK A01 T02190151  RH  065%=      5-min Rain = 0
KBO1 031236Z 22008KT 22/15 A3015 RMK A01 T02190150  RH  065%=      5-min Rain = 0
KBO1 031237Z 22008KT 22/15 A3016 RMK A01 T02200150  RH  065%=      5-min Rain = 0
KBO1 031238Z 22008KT 22/15 A3016 RMK A01 T02200150  RH  064%=      5-min Rain = 0
KBO1 031239Z 22008KT 22/15 A3016 RMK A01 T02210150  RH  064%=      5-min Rain = 0
KBO1 031240Z 22007KT 22/15 A3016 RMK A01 T02210150  RH  064%=      5-min Rain = 0
KBO1 031241Z 22009KT 22/15 A3016 RMK A01 T02210149  RH  064%=      5-min Rain = 0
KBO1 031242Z 23007KT 22/15 A3016 RMK A01 T02220149  RH  063%=      5-min Rain = 0
KBO1 031243Z 24006KT 22/15 A3016 RMK A01 T02220149  RH  063%=      5-min Rain = 0
KBO1 031244Z 25007KT 22/15 A3016 RMK A01 T02220149  RH  063%=      5-min Rain = 0
KBO1 031245Z 25006KT 22/15 A3016 RMK A01 T02230149  RH  063%=      5-min Rain = 0
KBO1 031246Z 28006KT 22/15 A3016 RMK A01 T02240149  RH  063%=      5-min Rain = 0
KBO1 031247Z 29007KT 22/15 A3017 RMK A01 T02240149  RH  063%=      5-min Rain = 0
KBO1 031248Z 30007KT 22/15 A3017 RMK A01 T02240149  RH  062%=      5-min Rain = 0
KBO1 031249Z 31008KT 23/15 A3017 RMK A01 T02250150  RH  062%=      5-min Rain = 0
KBO1 031250Z 31008KT 23/15 A3017 RMK A01 T02250150  RH  062%=      5-min Rain = 0
KBO1 031251Z 31008KT 23/15 A3017 RMK A01 T02250150  RH  063%=      5-min Rain = 0
KBO1 031252Z 31008KT 22/15 A3017 RMK A01 T02240150  RH  063%=      5-min Rain = 0
KBO1 031253Z 30009KT 23/15 A3017 RMK A01 T02250149  RH  062%=      5-min Rain = 0
KBO1 031254Z 29008KT 22/15 A3017 RMK A01 T02240148  RH  062%=      5-min Rain = 0
KBO1 031255Z 27008KT 23/15 A3016 RMK A01 T02250146  RH  061%=      5-min Rain = 0
KBO1 031256Z 27007KT 23/15 A3016 RMK A01 T02250146  RH  061%=      5-min Rain = 0
KBO1 031257Z 27009KT 23/15 A3016 RMK A01 T02260147  RH  061%=      5-min Rain = 0
KBO1 031258Z 27008KT 23/15 A3016 RMK A01 T02270146  RH  060%=      5-min Rain = 0
KBO1 031259Z 27008KT 23/15 A3016 RMK A01 T02270147  RH  060%=      5-min Rain = 0
KBO1 031300Z 28009KT 23/15 A3016 RMK A01 T02280146  RH  060%=      5-min Rain = 0
KBO1 031301Z 29008KT 23/15 A3016 RMK A01 T02280146  RH  060%=      5-min Rain = 0
KBO1 031302Z 29008KT 23/15 A3016 RMK A01 T02280146  RH  060%=      5-min Rain = 0
KBO1 031303Z 30010KT 23/15 A3016 RMK A01 T02290146  RH  059%=      5-min Rain = 0
KBO1 031304Z 30009KT 23/15 A3016 RMK A01 T02290145  RH  059%=      5-min Rain = 0
KBO1 031305Z 31008KT 23/15 A3017 RMK A01 T02290145  RH  059%=      5-min Rain = 0
KBO1 031306Z 31008KT 23/15 A3017 RMK A01 T02300145  RH  059%=      5-min Rain = 0
KBO1 031307Z 30007KT 23/15 A3017 RMK A01 T02310145  RH  059%=      5-min Rain = 0
KBO1 031308Z 30007KT 23/15 A3017 RMK A01 T02310146  RH  058%=      5-min Rain = 0
KBO1 031309Z 29007KT 23/15 A3017 RMK A01 T02320145  RH  058%=      5-min Rain = 0
KBO1 031310Z 28006KT 23/14 A3017 RMK A01 T02320144  RH  058%=      5-min Rain = 0
KBO1 031311Z 26005KT 23/14 A3017 RMK A01 T02320143  RH  057%=      5-min Rain = 0
KBO1 031312Z 26006KT 23/14 A3017 RMK A01 T02320143  RH  057%=      5-min Rain = 0
KBO1 031313Z 26006KT 23/14 A3017 RMK A01 T02320142  RH  057%=      5-min Rain = 0
KBO1 031314Z 26006KT 23/14 A3017 RMK A01 T02320141  RH  056%=      5-min Rain = 0
KBO1 031315Z 26005KT 23/14 A3017 RMK A01 T02330141  RH  056%=      5-min Rain = 0
KBO1 031316Z 27004KT 23/14 A3017 RMK A01 T02330142  RH  056%=      5-min Rain = 0
KBO1 031317Z 28005KT 23/14 A3017 RMK A01 T02340142  RH  056%=      5-min Rain = 0
KBO1 031318Z 28005KT 24/14 A3017 RMK A01 T02350140  RH  055%=      5-min Rain = 0
KBO1 031319Z 29005KT 24/14 A3017 RMK A01 T02360141  RH  055%=      5-min Rain = 0
KBO1 031320Z 30004KT 24/14 A3017 RMK A01 T02370141  RH  055%=      5-min Rain = 0
KBO1 031321Z 31005KT 24/14 A3017 RMK A01 T02380141  RH  055%=      5-min Rain = 0
KBO1 031322Z 31006KT 24/14 A3017 RMK A01 T02390141  RH  054%=      5-min Rain = 0
KBO1 031323Z 31006KT 24/14 A3017 RMK A01 T02390141  RH  054%=      5-min Rain = 0
KBO1 031324Z 30006KT 24/14 A3018 RMK A01 T02400142  RH  054%=      5-min Rain = 0
KBO1 031325Z 30006KT 24/14 A3018 RMK A01 T02420139  RH  052%=      5-min Rain = 0
KBO1 031326Z 30005KT 24/14 A3018 RMK A01 T02420138  RH  052%=      5-min Rain = 0
KBO1 031327Z 30005KT 24/14 A3017 RMK A01 T02420139  RH  053%=      5-min Rain = 0
KBO1 031328Z 29004KT 24/14 A3017 RMK A01 T02430140  RH  053%=      5-min Rain = 0
KBO1 031329Z 29005KT 24/14 A3017 RMK A01 T02440140  RH  052%=      5-min Rain = 0
KBO1 031330Z 29006KT 25/14 A3017 RMK A01 T02460139  RH  051%=      5-min Rain = 0
KBO1 031331Z 29005KT 25/14 A3017 RMK A01 T02450138  RH  051%=      5-min Rain = 0
KBO1 031332Z 29005KT 24/14 A3017 RMK A01 T02440138  RH  052%=      5-min Rain = 0
KBO1 031333Z 31005KT 24/14 A3017 RMK A01 T02440139  RH  052%=      5-min Rain = 0
KBO1 031334Z 31005KT 25/14 A3017 RMK A01 T02450138  RH  051%=      5-min Rain = 0
KBO1 031335Z 31005KT 25/14 A3017 RMK A01 T02470140  RH  051%=      5-min Rain = 0
KBO1 031336Z 30006KT 25/14 A3017 RMK A01 T02490139  RH  050%=      5-min Rain = 0
KBO1 031337Z 31006KT 25/14 A3018 RMK A01 T02490137  RH  050%=      5-min Rain = 0
KBO1 031338Z 30006KT 25/14 A3018 RMK A01 T02490137  RH  050%=      5-min Rain = 0
KBO1 031339Z 30004KT 25/14 A3018 RMK A01 T02490135  RH  049%=      5-min Rain = 0
KBO1 031340Z 29004KT 25/13 A3018 RMK A01 T02490134  RH  049%=      5-min Rain = 0
KBO1 031341Z 28003KT 25/13 A3018 RMK A01 T02500134  RH  048%=      5-min Rain = 0
KBO1 031342Z 26001KT 25/13 A3018 RMK A01 T02500134  RH  048%=      5-min Rain = 0
KBO1 031343Z 19000KT 25/13 A3018 RMK A01 T02510134  RH  048%=      5-min Rain = 0
KBO1 031344Z 21003KT 25/14 A3018 RMK A01 T02530135  RH  048%=      5-min Rain = 0
KBO1 031345Z 23002KT 25/13 A3018 RMK A01 T02540133  RH  047%=      5-min Rain = 0
KBO1 031346Z 26001KT 25/13 A3018 RMK A01 T02540133  RH  047%=      5-min Rain = 0
KBO1 031347Z 27003KT 25/13 A3018 RMK A01 T02540133  RH  047%=      5-min Rain = 0
KBO1 031348Z 28004KT 25/13 A3018 RMK A01 T02540133  RH  047%=      5-min Rain = 0
KBO1 031349Z 28005KT 25/13 A3018 RMK A01 T02540133  RH  047%=      5-min Rain = 0
KBO1 031350Z 28003KT 25/13 A3018 RMK A01 T02540133  RH  047%=      5-min Rain = 0
KBO1 031351Z 29002KT 25/13 A3018 RMK A01 T02530134  RH  047%=      5-min Rain = 0
KBO1 031352Z 27004KT 26/13 A3018 RMK A01 T02560133  RH  047%=      5-min Rain = 0
KBO1 031353Z 28005KT 26/13 A3018 RMK A01 T02570133  RH  046%=      5-min Rain = 0
KBO1 031354Z 29004KT 26/13 A3018 RMK A01 T02570132  RH  046%=      5-min Rain = 0
KBO1 031355Z 27003KT 26/13 A3018 RMK A01 T02580132  RH  046%=      5-min Rain = 0
KBO1 031356Z 26002KT 26/13 A3019 RMK A01 T02590132  RH  045%=      5-min Rain = 0
KBO1 031357Z 24002KT 26/13 A3019 RMK A01 T02590131  RH  045%=      5-min Rain = 0
KBO1 031358Z 25005KT 26/13 A3019 RMK A01 T02590133  RH  046%=      5-min Rain = 0
KBO1 031359Z 25004KT 26/13 A3019 RMK A01 T02600132  RH  045%=      5-min Rain = 0
KBO1 031400Z 26004KT 26/13 A3019 RMK A01 T02610132  RH  045%=      5-min Rain = 0
KBO1 031401Z 25006KT 26/13 A3019 RMK A01 T02610131  RH  045%=      5-min Rain = 0
KBO1 031402Z 24004KT 26/13 A3019 RMK A01 T02610130  RH  044%=      5-min Rain = 0
KBO1 031403Z 24005KT 26/13 A3019 RMK A01 T02610131  RH  044%=      5-min Rain = 0
KBO1 031404Z 26005KT 26/13 A3019 RMK A01 T02610131  RH  044%=      5-min Rain = 0
KBO1 031405Z 28006KT 26/13 A3019 RMK A01 T02620131  RH  044%=      5-min Rain = 0
KBO1 031406Z 27005KT 26/13 A3019 RMK A01 T02630131  RH  044%=      5-min Rain = 0
KBO1 031407Z 27003KT 26/13 A3019 RMK A01 T02640133  RH  044%=      5-min Rain = 0
KBO1 031408Z 22002KT 26/13 A3019 RMK A01 T02640130  RH  043%=      5-min Rain = 0
KBO1 031409Z 33003KT 26/13 A3019 RMK A01 T02640133  RH  044%=      5-min Rain = 0
KBO1 031410Z 28002KT 26/14 A3019 RMK A01 T02630136  RH  045%=      5-min Rain = 0
KBO1 031411Z 25003KT 26/14 A3019 RMK A01 T02630135  RH  045%=      5-min Rain = 0
KBO1 031412Z 22003KT 26/13 A3019 RMK A01 T02630133  RH  044%=      5-min Rain = 0
KBO1 031413Z 23005KT 27/13 A3019 RMK A01 T02650133  RH  044%=      5-min Rain = 0
KBO1 031414Z 31004KT 27/14 A3019 RMK A01 T02670139  RH  045%=      5-min Rain = 0
KBO1 031415Z 31004KT 27/14 A3019 RMK A01 T02690140  RH  045%=      5-min Rain = 0
KBO1 031416Z 26003KT 27/14 A3019 RMK A01 T02680138  RH  044%=      5-min Rain = 0
KBO1 031417Z 24003KT 27/13 A3019 RMK A01 T02670132  RH  043%=      5-min Rain = 0
KBO1 031418Z 23003KT 27/13 A3019 RMK A01 T02670131  RH  043%=      5-min Rain = 0
KBO1 031419Z 25002KT 27/13 A3019 RMK A01 T02670131  RH  043%=      5-min Rain = 0
KBO1 031420Z 29001KT 27/13 A3019 RMK A01 T02660134  RH  044%=      5-min Rain = 0
KBO1 031421Z 01001KT 27/14 A3019 RMK A01 T02680138  RH  045%=      5-min Rain = 0
KBO1 031422Z 06001KT 27/14 A3019 RMK A01 T02690138  RH  044%=      5-min Rain = 0
KBO1 031423Z 04002KT 27/14 A3019 RMK A01 T02720140  RH  044%=      5-min Rain = 0
KBO1 031424Z 01004KT 27/14 A3019 RMK A01 T02730139  RH  044%=      5-min Rain = 0
KBO1 031425Z 01004KT 27/14 A302 RMK A01 T02720137  RH  043%=      5-min Rain = 0
KBO1 031426Z 01004KT 27/14 A302 RMK A01 T02710139  RH  044%=      5-min Rain = 0
KBO1 031427Z 01004KT 27/14 A302 RMK A01 T02720138  RH  044%=      5-min Rain = 0
KBO1 031428Z 03003KT 27/14 A302 RMK A01 T02720137  RH  043%=      5-min Rain = 0
KBO1 031429Z 03002KT 27/14 A302 RMK A01 T02710136  RH  044%=      5-min Rain = 0
KBO1 031430Z 00003KT 27/14 A302 RMK A01 T02700136  RH  044%=      5-min Rain = 0
KBO1 031431Z 01002KT 27/14 A302 RMK A01 T02700137  RH  044%=      5-min Rain = 0
KBO1 031432Z 01001KT 27/14 A302 RMK A01 T02710137  RH  044%=      5-min Rain = 0
KBO1 031433Z 04002KT 27/14 A302 RMK A01 T02710136  RH  043%=      5-min Rain = 0
KBO1 031434Z 03003KT 27/14 A302 RMK A01 T02720137  RH  043%=      5-min Rain = 0
KBO1 031435Z 02005KT 27/14 A302 RMK A01 T02740137  RH  043%=      5-min Rain = 0
KBO1 031436Z 03004KT 28/14 A302 RMK A01 T02750136  RH  043%=      5-min Rain = 0
KBO1 031437Z 04009KT 27/14 A302 RMK A01 T02740144  RH  045%=      5-min Rain = 0
KBO1 031438Z 04008KT 27/15 A302 RMK A01 T02730146  RH  046%=      5-min Rain = 0
KBO1 031439Z 04009KT 27/15 A302 RMK A01 T02710145  RH  046%=      5-min Rain = 0
KBO1 031440Z 05010KT 27/15 A3021 RMK A01 T02710145  RH  046%=      5-min Rain = 0
KBO1 031441Z 05010KT 27/15 A3021 RMK A01 T02700145  RH  046%=      5-min Rain = 0
KBO1 031442Z 04010KT 27/14 A3021 RMK A01 T02680144  RH  047%=      5-min Rain = 0
KBO1 031443Z 04007KT 27/15 A3021 RMK A01 T02680145  RH  047%=      5-min Rain = 0
KBO1 031444Z 04006KT 27/15 A3021 RMK A01 T02690145  RH  046%=      5-min Rain = 0
KBO1 031445Z 07005KT 27/15 A3021 RMK A01 T02680145  RH  047%=      5-min Rain = 0
KBO1 031446Z 07004KT 27/14 A3021 RMK A01 T02670143  RH  046%=      5-min Rain = 0
KBO1 031447Z 05004KT 27/14 A302 RMK A01 T02680144  RH  047%=      5-min Rain = 0
KBO1 031448Z 04006KT 27/14 A302 RMK A01 T02690144  RH  046%=      5-min Rain = 0
KBO1 031449Z 03005KT 27/14 A302 RMK A01 T02680143  RH  046%=      5-min Rain = 0
KBO1 031450Z 02003KT 27/14 A302 RMK A01 T02670142  RH  046%=      5-min Rain = 0
KBO1 031451Z 07002KT 27/14 A302 RMK A01 T02650142  RH  047%=      5-min Rain = 0
KBO1 031452Z 06004KT 27/14 A302 RMK A01 T02660142  RH  047%=      5-min Rain = 0
KBO1 031453Z 05003KT 27/14 A302 RMK A01 T02680142  RH  046%=      5-min Rain = 0
KBO1 031454Z 03004KT 27/14 A302 RMK A01 T02680142  RH  046%=      5-min Rain = 0
KBO1 031455Z 08006KT 27/14 A302 RMK A01 T02680142  RH  046%=      5-min Rain = 0
KBO1 031456Z 08005KT 27/14 A302 RMK A01 T02690142  RH  046%=      5-min Rain = 0
KBO1 031457Z 07005KT 27/14 A302 RMK A01 T02680143  RH  046%=      5-min Rain = 0
KBO1 031458Z 05006KT 27/14 A302 RMK A01 T02700142  RH  046%=      5-min Rain = 0
KBO1 031459Z 08007KT 27/14 A302 RMK A01 T02710143  RH  045%=      5-min Rain = 0
KBO1 031500Z 05006KT 27/14 A302 RMK A01 T02710141  RH  045%=      5-min Rain = 0
KBO1 031501Z 03004KT 27/14 A302 RMK A01 T02700141  RH  045%=      5-min Rain = 0
KBO1 031502Z 02004KT 27/14 A302 RMK A01 T02690140  RH  045%=      5-min Rain = 0
KBO1 031503Z 06004KT 27/14 A302 RMK A01 T02690141  RH  045%=      5-min Rain = 0
KBO1 031504Z 06005KT 27/14 A302 RMK A01 T02700141  RH  045%=      5-min Rain = 0
KBO1 031505Z 03004KT 27/14 A302 RMK A01 T02700141  RH  045%=      5-min Rain = 0
KBO1 031506Z 06003KT 27/14 A302 RMK A01 T02700140  RH  045%=      5-min Rain = 0
KBO1 031507Z 06001KT 27/14 A302 RMK A01 T02700141  RH  045%=      5-min Rain = 0
KBO1 031508Z 06004KT 27/14 A302 RMK A01 T02720141  RH  045%=      5-min Rain = 0
KBO1 031509Z 07004KT 27/14 A302 RMK A01 T02730142  RH  045%=      5-min Rain = 0
KBO1 031510Z 10001KT 27/14 A302 RMK A01 T02720141  RH  045%=      5-min Rain = 0
KBO1 031511Z 12002KT 27/14 A302 RMK A01 T02720142  RH  045%=      5-min Rain = 0
KBO1 031512Z 06005KT 27/14 A302 RMK A01 T02730142  RH  045%=      5-min Rain = 0
KBO1 031513Z 05005KT 27/14 A302 RMK A01 T02740142  RH  044%=      5-min Rain = 0
KBO1 031514Z 03003KT 27/14 A302 RMK A01 T02740142  RH  044%=      5-min Rain = 0
KBO1 031515Z 01002KT 27/14 A302 RMK A01 T02730141  RH  044%=      5-min Rain = 0
KBO1 031516Z 07001KT 27/14 A302 RMK A01 T02730143  RH  045%=      5-min Rain = 0
KBO1 031517Z 08005KT 28/14 A302 RMK A01 T02750143  RH  044%=      5-min Rain = 0
KBO1 031518Z 10005KT 28/14 A302 RMK A01 T02770143  RH  044%=      5-min Rain = 0
KBO1 031519Z 09002KT 28/14 A302 RMK A01 T02760144  RH  044%=      5-min Rain = 0
KBO1 031520Z 01002KT 28/14 A302 RMK A01 T02760144  RH  044%=      5-min Rain = 0
KBO1 031521Z 31000KT 28/14 A302 RMK A01 T02760143  RH  044%=      5-min Rain = 0
KBO1 031522Z 05003KT 28/14 A302 RMK A01 T02760144  RH  044%=      5-min Rain = 0
KBO1 031523Z 07004KT 28/14 A302 RMK A01 T02780144  RH  044%=      5-min Rain = 0
KBO1 031524Z 07006KT 28/14 A302 RMK A01 T02800143  RH  043%=      5-min Rain = 0
KBO1 031525Z 09004KT 28/14 A302 RMK A01 T02810141  RH  042%=      5-min Rain = 0
KBO1 031526Z 07003KT 28/14 A302 RMK A01 T02790139  RH  042%=      5-min Rain = 0
KBO1 031527Z 08003KT 28/14 A302 RMK A01 T02790137  RH  042%=      5-min Rain = 0
KBO1 031528Z 09003KT 28/14 A302 RMK A01 T02800139  RH  042%=      5-min Rain = 0
KBO1 031529Z 13003KT 28/14 A302 RMK A01 T02810141  RH  042%=      5-min Rain = 0
KBO1 031530Z 09004KT 28/14 A302 RMK A01 T02840141  RH  042%=      5-min Rain = 0
KBO1 031531Z 07004KT 29/14 A302 RMK A01 T02850139  RH  041%=      5-min Rain = 0
KBO1 031532Z 03005KT 29/14 A302 RMK A01 T02850140  RH  041%=      5-min Rain = 0
KBO1 031533Z 08004KT 29/14 A302 RMK A01 T02860140  RH  041%=      5-min Rain = 0
KBO1 031534Z 10004KT 29/14 A302 RMK A01 T02880140  RH  040%=      5-min Rain = 0
KBO1 031535Z 08006KT 29/14 A302 RMK A01 T02890141  RH  040%=      5-min Rain = 0
KBO1 031536Z 07005KT 29/14 A302 RMK A01 T02890140  RH  040%=      5-min Rain = 0
KBO1 031537Z 07006KT 29/14 A302 RMK A01 T02890141  RH  041%=      5-min Rain = 0
KBO1 031538Z 06006KT 29/14 A302 RMK A01 T02920143  RH  040%=      5-min Rain = 0
KBO1 031539Z 06006KT 29/14 A302 RMK A01 T02910142  RH  040%=      5-min Rain = 0
KBO1 031540Z 10008KT 29/15 A302 RMK A01 T02890146  RH  042%=      5-min Rain = 0
KBO1 031541Z 09008KT 29/15 A302 RMK A01 T02870145  RH  042%=      5-min Rain = 0
KBO1 031542Z 09007KT 29/15 A302 RMK A01 T02850146  RH  042%=      5-min Rain = 0
KBO1 031543Z 09008KT 29/15 A302 RMK A01 T02850145  RH  043%=      5-min Rain = 0
KBO1 031544Z 10004KT 28/15 A302 RMK A01 T02830145  RH  043%=      5-min Rain = 0
KBO1 031545Z 10008KT 28/15 A302 RMK A01 T02840146  RH  043%=      5-min Rain = 0
KBO1 031546Z 09008KT 29/15 A302 RMK A01 T02850145  RH  042%=      5-min Rain = 0
KBO1 031547Z 11008KT 28/15 A302 RMK A01 T02830145  RH  043%=      5-min Rain = 0
KBO1 031548Z 13006KT 28/15 A302 RMK A01 T02810145  RH  043%=      5-min Rain = 0
KBO1 031549Z 12006KT 28/15 A302 RMK A01 T02830145  RH  043%=      5-min Rain = 0
KBO1 031550Z 10008KT 29/15 A302 RMK A01 T02850147  RH  043%=      5-min Rain = 0
KBO1 031551Z 09009KT 29/15 A302 RMK A01 T02870147  RH  042%=      5-min Rain = 0
KBO1 031552Z 07004KT 29/15 A302 RMK A01 T02870146  RH  042%=      5-min Rain = 0
KBO1 031553Z 10006KT 28/15 A302 RMK A01 T02840145  RH  043%=      5-min Rain = 0
KBO1 031554Z 09007KT 28/15 A302 RMK A01 T02840145  RH  043%=      5-min Rain = 0
KBO1 031555Z 10005KT 29/15 A302 RMK A01 T02850145  RH  042%=      5-min Rain = 0
KBO1 031556Z 11007KT 29/15 A302 RMK A01 T02860146  RH  042%=      5-min Rain = 0
KBO1 031557Z 13008KT 29/15 A302 RMK A01 T02890146  RH  042%=      5-min Rain = 0
KBO1 031558Z 12007KT 29/15 A302 RMK A01 T02890145  RH  041%=      5-min Rain = 0
KBO1 031559Z 13006KT 29/14 A302 RMK A01 T02870144  RH  042%=      5-min Rain = 0
KBO1 031600Z 12006KT 29/14 A302 RMK A01 T02850144  RH  042%=      5-min Rain = 0
KBO1 031601Z 11003KT 29/14 A302 RMK A01 T02850143  RH  042%=      5-min Rain = 0
KBO1 031602Z 12010KT 29/15 A302 RMK A01 T02850146  RH  043%=      5-min Rain = 0
KBO1 031603Z 12009KT 29/14 A302 RMK A01 T02870144  RH  042%=      5-min Rain = 0
KBO1 031604Z 12007KT 29/14 A302 RMK A01 T02870144  RH  042%=      5-min Rain = 0
KBO1 031605Z 11006KT 29/14 A302 RMK A01 T02860143  RH  042%=      5-min Rain = 0
KBO1 031606Z 10005KT 29/14 A302 RMK A01 T02850143  RH  042%=      5-min Rain = 0
KBO1 031607Z 10007KT 28/14 A302 RMK A01 T02840142  RH  042%=      5-min Rain = 0
KBO1 031608Z 10004KT 28/14 A302 RMK A01 T02830142  RH  042%=      5-min Rain = 0
KBO1 031609Z 10005KT 28/14 A302 RMK A01 T02830142  RH  042%=      5-min Rain = 0
KBO1 031610Z 12009KT 29/14 A302 RMK A01 T02850143  RH  042%=      5-min Rain = 0
KBO1 031611Z 11009KT 29/14 A302 RMK A01 T02860142  RH  041%=      5-min Rain = 0
KBO1 031612Z 09008KT 29/14 A302 RMK A01 T02860142  RH  041%=      5-min Rain = 0
KBO1 031613Z 10006KT 29/14 A302 RMK A01 T02860141  RH  041%=      5-min Rain = 0
KBO1 031614Z 11008KT 29/14 A302 RMK A01 T02880141  RH  041%=      5-min Rain = 0
KBO1 031615Z 13006KT 29/14 A302 RMK A01 T02910140  RH  040%=      5-min Rain = 0
KBO1 031616Z 10004G11KT 29/14 A302 RMK A01 T02900141  RH  040%=      5-min Rain = 0
KBO1 031617Z 11010KT 29/14 A302 RMK A01 T02910143  RH  041%=      5-min Rain = 0
KBO1 031618Z 10009KT 29/14 A3021 RMK A01 T02920142  RH  040%=      5-min Rain = 0
KBO1 031619Z 12006KT 29/14 A3021 RMK A01 T02920141  RH  040%=      5-min Rain = 0
KBO1 031620Z 10004KT 29/14 A3021 RMK A01 T02910141  RH  040%=      5-min Rain = 0
KBO1 031621Z 12002KT 29/14 A302 RMK A01 T02920140  RH  040%=      5-min Rain = 0
KBO1 031622Z 12007KT 29/14 A302 RMK A01 T02910140  RH  040%=      5-min Rain = 0
KBO1 031623Z 12009KT 29/14 A302 RMK A01 T02910139  RH  039%=      5-min Rain = 0
KBO1 031624Z 10007KT 29/14 A3021 RMK A01 T02920138  RH  039%=      5-min Rain = 0
KBO1 031625Z 09005KT 29/14 A302 RMK A01 T02920138  RH  039%=      5-min Rain = 0
KBO1 031626Z 08006KT 29/14 A302 RMK A01 T02920138  RH  039%=      5-min Rain = 0
KBO1 031627Z 09010KT 29/14 A302 RMK A01 T02930138  RH  039%=      5-min Rain = 0
KBO1 031628Z 08008KT 29/14 A302 RMK A01 T02930139  RH  039%=      5-min Rain = 0
KBO1 031629Z 09005G12KT 29/14 A302 RMK A01 T02920138  RH  039%=      5-min Rain = 0
KBO1 031630Z 13008KT 29/14 A302 RMK A01 T02920138  RH  039%=      5-min Rain = 0
KBO1 031631Z 12005KT 29/14 A302 RMK A01 T02930139  RH  039%=      5-min Rain = 0
KBO1 031632Z 11008KT 30/14 A302 RMK A01 T02950140  RH  039%=      5-min Rain = 0
KBO1 031633Z 08009KT 30/14 A302 RMK A01 T02950139  RH  039%=      5-min Rain = 0
KBO1 031634Z 07009KT 29/14 A302 RMK A01 T02930139  RH  039%=      5-min Rain = 0
KBO1 031635Z 07008KT 29/14 A302 RMK A01 T02930139  RH  039%=      5-min Rain = 0
KBO1 031636Z 07008KT 29/14 A302 RMK A01 T02930138  RH  039%=      5-min Rain = 0
KBO1 031637Z 07006KT 29/14 A302 RMK A01 T02910137  RH  039%=      5-min Rain = 0
KBO1 031638Z 06004KT 29/14 A302 RMK A01 T02910138  RH  039%=      5-min Rain = 0
KBO1 031639Z 04006KT 29/14 A302 RMK A01 T02940137  RH  038%=      5-min Rain = 0
KBO1 031640Z 05004KT 30/14 A302 RMK A01 T02950136  RH  038%=      5-min Rain = 0
KBO1 031641Z 05004KT 30/14 A302 RMK A01 T02950135  RH  038%=      5-min Rain = 0
KBO1 031642Z 10007KT 30/14 A302 RMK A01 T02980137  RH  037%=      5-min Rain = 0
KBO1 031643Z 11008KT 30/14 A302 RMK A01 T03020135  RH  036%=      5-min Rain = 0
KBO1 031644Z 09008KT 30/14 A302 RMK A01 T03020135  RH  036%=      5-min Rain = 0
KBO1 031645Z 08005KT 30/13 A302 RMK A01 T03000133  RH  036%=      5-min Rain = 0
KBO1 031646Z 13003KT 30/13 A302 RMK A01 T02970132  RH  036%=      5-min Rain = 0
KBO1 031647Z 14001KT 30/13 A302 RMK A01 T02970130  RH  036%=      5-min Rain = 0
KBO1 031648Z 06005G10KT 30/13 A302 RMK A01 T02990130  RH  036%=      5-min Rain = 0
KBO1 031649Z 07006KT 30/13 A302 RMK A01 T03000130  RH  035%=      5-min Rain = 0
KBO1 031650Z 09005KT 30/13 A302 RMK A01 T03000132  RH  036%=      5-min Rain = 0
KBO1 031651Z 09006KT 30/13 A302 RMK A01 T03020132  RH  035%=      5-min Rain = 0
KBO1 031652Z 13007KT 30/13 A302 RMK A01 T03030132  RH  035%=      5-min Rain = 0
KBO1 031653Z 13008KT 31/13 A302 RMK A01 T03090132  RH  034%=      5-min Rain = 0
KBO1 031654Z 13006KT 31/13 A302 RMK A01 T03110128  RH  033%=      5-min Rain = 0
KBO1 031655Z 08007KT 31/13 A302 RMK A01 T03060126  RH  033%=      5-min Rain = 0
KBO1 031656Z 07006KT 31/12 A302 RMK A01 T03050118  RH  032%=      5-min Rain = 0
KBO1 031657Z 08004KT 30/12 A302 RMK A01 T03040118  RH  032%=      5-min Rain = 0
KBO1 031658Z 10004KT 31/12 A302 RMK A01 T03050120  RH  032%=      5-min Rain = 0
KBO1 031659Z 11005KT 31/13 A302 RMK A01 T03070125  RH  033%=      5-min Rain = 0
KBO1 031700Z 12004KT 31/13 A302 RMK A01 T03100125  RH  032%=      5-min Rain = 0
KBO1 031701Z 15005KT 31/12 A302 RMK A01 T03120124  RH  032%=      5-min Rain = 0
KBO1 031702Z 16005KT 31/12 A302 RMK A01 T03140121  RH  031%=      5-min Rain = 0
KBO1 031703Z 17004KT 31/12 A302 RMK A01 T03140122  RH  031%=      5-min Rain = 0
KBO1 031704Z 13003KT 31/12 A302 RMK A01 T03090123  RH  032%=      5-min Rain = 0
KBO1 031705Z 07005KT 31/12 A302 RMK A01 T03080122  RH  032%=      5-min Rain = 0
KBO1 031706Z 07005KT 31/12 A302 RMK A01 T03090121  RH  032%=      5-min Rain = 0
KBO1 031707Z 05005KT 31/13 A302 RMK A01 T03060127  RH  033%=      5-min Rain = 0
KBO1 031708Z 03006KT 30/13 A302 RMK A01 T03040129  RH  034%=      5-min Rain = 0
KBO1 031709Z 03006KT 30/13 A302 RMK A01 T03030128  RH  034%=      5-min Rain = 0
KBO1 031710Z 06005KT 30/13 A302 RMK A01 T03030127  RH  034%=      5-min Rain = 0
KBO1 031711Z 11009KT 30/13 A302 RMK A01 T03020127  RH  034%=      5-min Rain = 0
KBO1 031712Z 12009KT 30/13 A302 RMK A01 T03040125  RH  033%=      5-min Rain = 0
KBO1 031713Z 15007KT 31/13 A302 RMK A01 T03050126  RH  033%=      5-min Rain = 0
KBO1 031714Z 18004KT 31/13 A302 RMK A01 T03050125  RH  033%=      5-min Rain = 0
KBO1 031715Z 14006KT 31/12 A302 RMK A01 T03050124  RH  033%=      5-min Rain = 0
KBO1 031716Z 13005KT 31/12 A302 RMK A01 T03070123  RH  032%=      5-min Rain = 0
KBO1 031717Z 08009KT 31/13 A302 RMK A01 T03100125  RH  032%=      5-min Rain = 0
KBO1 031718Z 07006KT 31/12 A302 RMK A01 T03090124  RH  032%=      5-min Rain = 0
KBO1 031719Z 10004KT 31/12 A302 RMK A01 T03080123  RH  032%=      5-min Rain = 0
KBO1 031720Z 09006G11KT 31/12 A302 RMK A01 T03080124  RH  032%=      5-min Rain = 0
KBO1 031721Z 11008KT 31/13 A302 RMK A01 T03130126  RH  032%=      5-min Rain = 0
KBO1 031722Z 09006KT 32/12 A302 RMK A01 T03170124  RH  031%=      5-min Rain = 0
KBO1 031723Z 12007KT 32/12 A302 RMK A01 T03170124  RH  031%=      5-min Rain = 0
KBO1 031724Z 14009KT 32/12 A302 RMK A01 T03170124  RH  031%=      5-min Rain = 0
KBO1 031725Z 15010KT 32/12 A302 RMK A01 T03180123  RH  030%=      5-min Rain = 0
KBO1 031726Z 16009KT 32/12 A302 RMK A01 T03160122  RH  031%=      5-min Rain = 0
KBO1 031727Z 16006KT 31/12 A302 RMK A01 T03140122  RH  031%=      5-min Rain = 0
KBO1 031728Z 16008KT 31/12 A302 RMK A01 T03140122  RH  031%=      5-min Rain = 0
KBO1 031729Z 17009KT 31/12 A302 RMK A01 T03140122  RH  031%=      5-min Rain = 0
KBO1 031730Z 16006KT 31/12 A302 RMK A01 T03140122  RH  031%=      5-min Rain = 0
KBO1 031731Z 20006KT 31/12 A302 RMK A01 T03130122  RH  031%=      5-min Rain = 0
KBO1 031732Z 20005KT 31/12 A302 RMK A01 T03110122  RH  031%=      5-min Rain = 0
KBO1 031733Z 12004KT 31/12 A302 RMK A01 T03120123  RH  031%=      5-min Rain = 0
KBO1 031734Z 08009KT 31/12 A302 RMK A01 T03140122  RH  031%=      5-min Rain = 0
KBO1 031735Z 07010KT 31/12 A302 RMK A01 T03140123  RH  031%=      5-min Rain = 0
KBO1 031736Z 07009KT 31/12 A302 RMK A01 T03120123  RH  031%=      5-min Rain = 0
KBO1 031737Z 08008KT 31/13 A302 RMK A01 T03130125  RH  032%=      5-min Rain = 0
KBO1 031738Z 08006KT 31/12 A302 RMK A01 T03140124  RH  031%=      5-min Rain = 0
KBO1 031739Z 08007KT 31/12 A302 RMK A01 T03110124  RH  032%=      5-min Rain = 0
KBO1 031740Z 06007KT 31/12 A302 RMK A01 T03100124  RH  032%=      5-min Rain = 0
KBO1 031741Z 06009KT 31/13 A302 RMK A01 T03130127  RH  032%=      5-min Rain = 0
KBO1 031742Z 13012KT 32/13 A302 RMK A01 T03180128  RH  031%=      5-min Rain = 0
KBO1 031743Z 12010KT 32/13 A302 RMK A01 T03190126  RH  031%=      5-min Rain = 0
KBO1 031744Z 10007KT 32/13 A302 RMK A01 T03150125  RH  031%=      5-min Rain = 0
KBO1 031745Z 15011KT 31/13 A302 RMK A01 T03140127  RH  032%=      5-min Rain = 0
KBO1 031746Z 16009KT 32/13 A302 RMK A01 T03160126  RH  031%=      5-min Rain = 0
KBO1 031747Z 14006KT 32/12 A302 RMK A01 T03150124  RH  031%=      5-min Rain = 0
KBO1 031748Z 14007KT 31/13 A302 RMK A01 T03120126  RH  032%=      5-min Rain = 0
KBO1 031749Z 15008KT 31/12 A302 RMK A01 T03130124  RH  032%=      5-min Rain = 0
KBO1 031750Z 13006KT 31/13 A302 RMK A01 T03140125  RH  032%=      5-min Rain = 0
KBO1 031751Z 13008KT 31/13 A3019 RMK A01 T03140125  RH  032%=      5-min Rain = 0
KBO1 031752Z 15008KT 32/13 A3019 RMK A01 T03160125  RH  031%=      5-min Rain = 0
KBO1 031753Z 16004KT 32/12 A3019 RMK A01 T03150124  RH  031%=      5-min Rain = 0
KBO1 031754Z 12004KT 31/12 A302 RMK A01 T03130124  RH  031%=      5-min Rain = 0
KBO1 031755Z 08004G9KT 31/12 A302 RMK A01 T03120124  RH  032%=      5-min Rain = 0
KBO1 031756Z 10010KT 31/13 A302 RMK A01 T03130126  RH  032%=      5-min Rain = 0
KBO1 031757Z 08010KT 32/13 A302 RMK A01 T03180127  RH  031%=      5-min Rain = 0
KBO1 031758Z 08007KT 32/12 A302 RMK A01 T03190124  RH  030%=      5-min Rain = 0
KBO1 031759Z 07006KT 31/12 A302 RMK A01 T03130122  RH  031%=      5-min Rain = 0
KBO1 031800Z 06006KT 31/12 A302 RMK A01 T03110124  RH  032%=      5-min Rain = 0
KBO1 031801Z 06006KT 31/13 A302 RMK A01 T03130125  RH  032%=      5-min Rain = 0
KBO1 031802Z 08008G13KT 32/13 A302 RMK A01 T03170126  RH  031%=      5-min Rain = 0
KBO1 031803Z 08008KT 32/13 A302 RMK A01 T03180125  RH  031%=      5-min Rain = 0
KBO1 031804Z 07010KT 32/12 A302 RMK A01 T03180124  RH  031%=      5-min Rain = 0
KBO1 031805Z 05006KT 32/13 A3019 RMK A01 T03180125  RH  031%=      5-min Rain = 0
KBO1 031806Z 06002KT 32/12 A3019 RMK A01 T03170123  RH  031%=      5-min Rain = 0
KBO1 031807Z 10008KT 32/13 A3019 RMK A01 T03180125  RH  031%=      5-min Rain = 0
KBO1 031808Z 10008KT 32/13 A3019 RMK A01 T03220125  RH  030%=      5-min Rain = 0
KBO1 031809Z 09011KT 32/13 A3019 RMK A01 T03240125  RH  030%=      5-min Rain = 0
KBO1 031810Z 08010KT 32/12 A302 RMK A01 T03200123  RH  030%=      5-min Rain = 0
KBO1 031811Z 08010KT 32/12 A302 RMK A01 T03160122  RH  031%=      5-min Rain = 0
KBO1 031812Z 05007KT 31/12 A302 RMK A01 T03140123  RH  031%=      5-min Rain = 0
KBO1 031813Z 05006KT 31/12 A3019 RMK A01 T03130123  RH  031%=      5-min Rain = 0
KBO1 031814Z 04003KT 31/12 A3019 RMK A01 T03120124  RH  032%=      5-min Rain = 0
KBO1 031815Z 13008KT 31/12 A3019 RMK A01 T03130124  RH  031%=      5-min Rain = 0
KBO1 031816Z 15006KT 32/12 A3019 RMK A01 T03170123  RH  031%=      5-min Rain = 0
KBO1 031817Z 12005KT 32/12 A3019 RMK A01 T03180123  RH  031%=      5-min Rain = 0
KBO1 031818Z 10006KT 32/13 A3019 RMK A01 T03200125  RH  030%=      5-min Rain = 0
KBO1 031819Z 13006KT 32/13 A3019 RMK A01 T03230125  RH  030%=      5-min Rain = 0
KBO1 031820Z 13006KT 33/13 A3019 RMK A01 T03270126  RH  029%=      5-min Rain = 0
KBO1 031821Z 10007KT 33/13 A3019 RMK A01 T03310126  RH  029%=      5-min Rain = 0
KBO1 031822Z 08012KT 33/13 A3019 RMK A01 T03300125  RH  029%=      5-min Rain = 0
KBO1 031823Z 07011G16KT 33/13 A3019 RMK A01 T03290125  RH  029%=      5-min Rain = 0
KBO1 031824Z 07011KT 33/12 A3019 RMK A01 T03260123  RH  029%=      5-min Rain = 0
KBO1 031825Z 08008KT 32/12 A3019 RMK A01 T03240124  RH  030%=      5-min Rain = 0
KBO1 031826Z 08006KT 32/12 A3019 RMK A01 T03240123  RH  029%=      5-min Rain = 0
KBO1 031827Z 07006KT 32/12 A3019 RMK A01 T03220124  RH  030%=      5-min Rain = 0
KBO1 031828Z 06003KT 32/12 A3019 RMK A01 T03220124  RH  030%=      5-min Rain = 0
KBO1 031829Z 11003KT 32/12 A3019 RMK A01 T03200123  RH  030%=      5-min Rain = 0
KBO1 031830Z 10009KT 32/13 A3019 RMK A01 T03210125  RH  030%=      5-min Rain = 0
KBO1 031831Z 09010KT 32/12 A3019 RMK A01 T03220123  RH  030%=      5-min Rain = 0
KBO1 031832Z 09012KT 32/12 A3019 RMK A01 T03210124  RH  030%=      5-min Rain = 0
KBO1 031833Z 11010KT 32/12 A3019 RMK A01 T03210123  RH  030%=      5-min Rain = 0
KBO1 031834Z 11011KT 32/12 A3018 RMK A01 T03210124  RH  030%=      5-min Rain = 0
KBO1 031835Z 09004G9KT 32/12 A3019 RMK A01 T03220122  RH  030%=      5-min Rain = 0
KBO1 031836Z 10004G9KT 32/12 A3018 RMK A01 T03200123  RH  030%=      5-min Rain = 0
KBO1 031837Z 09006KT 32/12 A3018 RMK A01 T03200122  RH  030%=      5-min Rain = 0
KBO1 031838Z 11004G9KT 32/12 A3018 RMK A01 T03190124  RH  030%=      5-min Rain = 0
KBO1 031839Z 14011KT 32/12 A3018 RMK A01 T03210123  RH  030%=      5-min Rain = 0
KBO1 031840Z 14009KT 33/12 A3018 RMK A01 T03250122  RH  029%=      5-min Rain = 0
KBO1 031841Z 12009KT 33/12 A3018 RMK A01 T03260123  RH  029%=      5-min Rain = 0
KBO1 031842Z 12009KT 32/12 A3018 RMK A01 T03240122  RH  029%=      5-min Rain = 0
KBO1 031843Z 15007KT 32/12 A3018 RMK A01 T03210123  RH  030%=      5-min Rain = 0
KBO1 031844Z 18004KT 32/12 A3018 RMK A01 T03200122  RH  030%=      5-min Rain = 0
KBO1 031845Z 14009KT 32/12 A3018 RMK A01 T03180123  RH  030%=      5-min Rain = 0
KBO1 031846Z 14008KT 32/12 A3018 RMK A01 T03190122  RH  030%=      5-min Rain = 0
KBO1 031847Z 14006G12KT 32/12 A3018 RMK A01 T03190122  RH  030%=      5-min Rain = 0
KBO1 031848Z 12009KT 32/12 A3018 RMK A01 T03220123  RH  030%=      5-min Rain = 0
KBO1 031849Z 13008KT 32/12 A3018 RMK A01 T03230122  RH  029%=      5-min Rain = 0
KBO1 031850Z 14012KT 32/12 A3018 RMK A01 T03240124  RH  030%=      5-min Rain = 0
KBO1 031851Z 13009KT 33/12 A3018 RMK A01 T03260122  RH  029%=      5-min Rain = 0
KBO1 031852Z 13007KT 33/12 A3018 RMK A01 T03260121  RH  029%=      5-min Rain = 0
KBO1 031853Z 15005KT 32/12 A3018 RMK A01 T03240122  RH  029%=      5-min Rain = 0
KBO1 031854Z 16008KT 33/12 A3018 RMK A01 T03280123  RH  029%=      5-min Rain = 0
KBO1 031855Z 15007KT 33/12 A3018 RMK A01 T03300121  RH  028%=      5-min Rain = 0
KBO1 031856Z 15005KT 33/12 A3018 RMK A01 T03260118  RH  028%=      5-min Rain = 0
KBO1 031857Z 16007KT 32/12 A3018 RMK A01 T03240120  RH  029%=      5-min Rain = 0
KBO1 031858Z 15006KT 33/12 A3017 RMK A01 T03250121  RH  029%=      5-min Rain = 0
KBO1 031859Z 13008KT 33/12 A3017 RMK A01 T03250122  RH  029%=      5-min Rain = 0
KBO1 031900Z 14008KT 33/12 A3017 RMK A01 T03250123  RH  029%=      5-min Rain = 0
KBO1 031901Z 13015G20KT 33/13 A3017 RMK A01 T03280125  RH  029%=      5-min Rain = 0
KBO1 031902Z 09012G17KT 33/12 A3018 RMK A01 T03270124  RH  029%=      5-min Rain = 0
KBO1 031903Z 08010KT 33/12 A3017 RMK A01 T03250124  RH  030%=      5-min Rain = 0
KBO1 031904Z 11011KT 33/13 A3017 RMK A01 T03270125  RH  029%=      5-min Rain = 0
KBO1 031905Z 10014G19KT 33/12 A3018 RMK A01 T03300123  RH  028%=      5-min Rain = 0
KBO1 031906Z 09012KT 33/12 A3017 RMK A01 T03270123  RH  029%=      5-min Rain = 0
KBO1 031907Z 09010KT 33/12 A3017 RMK A01 T03260123  RH  029%=      5-min Rain = 0
KBO1 031908Z 12011KT 33/12 A3017 RMK A01 T03280123  RH  029%=      5-min Rain = 0
KBO1 031909Z 11007KT 33/12 A3017 RMK A01 T03280122  RH  029%=      5-min Rain = 0
KBO1 031910Z 14007KT 33/12 A3017 RMK A01 T03290123  RH  029%=      5-min Rain = 0
KBO1 031911Z 18004KT 33/12 A3017 RMK A01 T03280120  RH  028%=      5-min Rain = 0
KBO1 031912Z 14007KT 33/12 A3017 RMK A01 T03250121  RH  029%=      5-min Rain = 0
KBO1 031913Z 09011KT 33/12 A3017 RMK A01 T03250120  RH  029%=      5-min Rain = 0
KBO1 031914Z 09012KT 33/12 A3017 RMK A01 T03280117  RH  028%=      5-min Rain = 0
KBO1 031915Z 07013KT 33/12 A3017 RMK A01 T03290118  RH  028%=      5-min Rain = 0
KBO1 031916Z 06013KT 33/12 A3017 RMK A01 T03290119  RH  028%=      5-min Rain = 0
KBO1 031917Z 07011KT 33/12 A3017 RMK A01 T03280120  RH  028%=      5-min Rain = 0
KBO1 031918Z 06014KT 33/12 A3017 RMK A01 T03290117  RH  028%=      5-min Rain = 0
KBO1 031919Z 10010KT 33/12 A3017 RMK A01 T03310118  RH  027%=      5-min Rain = 0
KBO1 031920Z 08011KT 33/12 A3017 RMK A01 T03330117  RH  027%=      5-min Rain = 0
KBO1 031921Z 06010KT 33/12 A3016 RMK A01 T03310117  RH  027%=      5-min Rain = 0
KBO1 031922Z 09009KT 33/12 A3017 RMK A01 T03280116  RH  027%=      5-min Rain = 0
KBO1 031923Z 10010KT 33/12 A3016 RMK A01 T03300117  RH  027%=      5-min Rain = 0
KBO1 031924Z 10011KT 33/12 A3016 RMK A01 T03320115  RH  027%=      5-min Rain = 0
KBO1 031925Z 09007KT 33/11 A3016 RMK A01 T03290114  RH  027%=      5-min Rain = 0
KBO1 031926Z 09007KT 33/11 A3016 RMK A01 T03270113  RH  027%=      5-min Rain = 0
KBO1 031927Z 11005G10KT 33/11 A3016 RMK A01 T03260113  RH  027%=      5-min Rain = 0
KBO1 031928Z 05009KT 33/12 A3016 RMK A01 T03250115  RH  028%=      5-min Rain = 0
KBO1 031929Z 05007KT 33/12 A3015 RMK A01 T03280117  RH  028%=      5-min Rain = 0
KBO1 031930Z 08008KT 33/12 A3016 RMK A01 T03310117  RH  027%=      5-min Rain = 0
KBO1 031931Z 08008KT 33/12 A3016 RMK A01 T03310117  RH  027%=      5-min Rain = 0
KBO1 031932Z 09009KT 33/12 A3016 RMK A01 T03320117  RH  027%=      5-min Rain = 0
KBO1 031933Z 08009KT 33/12 A3016 RMK A01 T03280116  RH  027%=      5-min Rain = 0
KBO1 031934Z 08011G16KT 33/12 A3016 RMK A01 T03300119  RH  028%=      5-min Rain = 0
KBO1 031935Z 11010KT 33/11 A3016 RMK A01 T03340114  RH  026%=      5-min Rain = 0
KBO1 031936Z 14012KT 33/11 A3016 RMK A01 T03330114  RH  026%=      5-min Rain = 0
KBO1 031937Z 15011KT 34/11 A3016 RMK A01 T03350112  RH  026%=      5-min Rain = 0
KBO1 031938Z 15011KT 33/11 A3015 RMK A01 T03330112  RH  026%=      5-min Rain = 0
KBO1 031939Z 14008KT 33/11 A3015 RMK A01 T03330111  RH  026%=      5-min Rain = 0
KBO1 031940Z 14011KT 33/11 A3015 RMK A01 T03330112  RH  026%=      5-min Rain = 0
KBO1 031941Z 11008KT 34/11 A3016 RMK A01 T03350109  RH  025%=      5-min Rain = 0
KBO1 031942Z 10009KT 33/11 A3016 RMK A01 T03330109  RH  025%=      5-min Rain = 0
KBO1 031943Z 08010KT 33/11 A3016 RMK A01 T03310110  RH  026%=      5-min Rain = 0
KBO1 031944Z 09006KT 33/11 A3016 RMK A01 T03320110  RH  026%=      5-min Rain = 0
KBO1 031945Z 07006KT 33/11 A3015 RMK A01 T03310108  RH  026%=      5-min Rain = 0
KBO1 031946Z 10011KT 33/11 A3016 RMK A01 T03280113  RH  027%=      5-min Rain = 0
KBO1 031947Z 12010KT 33/12 A3016 RMK A01 T03280116  RH  027%=      5-min Rain = 0
KBO1 031948Z 11009KT 33/12 A3015 RMK A01 T03270116  RH  028%=      5-min Rain = 0
KBO1 031949Z 10009KT 33/12 A3015 RMK A01 T03260115  RH  028%=      5-min Rain = 0
KBO1 031950Z 09010G17KT 33/12 A3015 RMK A01 T03270115  RH  027%=      5-min Rain = 0
KBO1 031951Z 09015KT 33/12 A3015 RMK A01 T03330120  RH  028%=      5-min Rain = 0
KBO1 031952Z 09015KT 34/12 A3015 RMK A01 T03350119  RH  027%=      5-min Rain = 0
KBO1 031953Z 10009KT 33/12 A3015 RMK A01 T03340118  RH  027%=      5-min Rain = 0
KBO1 031954Z 10009KT 33/12 A3015 RMK A01 T03300118  RH  027%=      5-min Rain = 0
KBO1 031955Z 10010KT 33/12 A3015 RMK A01 T03330120  RH  027%=      5-min Rain = 0
KBO1 031956Z 12012KT 34/12 A3015 RMK A01 T03400120  RH  026%=      5-min Rain = 0
KBO1 031957Z 13014KT 35/12 A3015 RMK A01 T03480119  RH  025%=      5-min Rain = 0
KBO1 031958Z 13012KT 35/12 A3015 RMK A01 T03490116  RH  024%=      5-min Rain = 0
KBO1 031959Z 14007KT 34/11 A3015 RMK A01 T03420114  RH  025%=      5-min Rain = 0
KBO1 032000Z 13006KT 34/11 A3015 RMK A01 T03360113  RH  026%=      5-min Rain = 0
KBO1 032001Z 11009G14KT 33/11 A3015 RMK A01 T03320112  RH  026%=      5-min Rain = 0
KBO1 032002Z 14014KT 33/11 A3015 RMK A01 T03320113  RH  026%=      5-min Rain = 0
KBO1 032003Z 14012KT 33/11 A3015 RMK A01 T03330111  RH  026%=      5-min Rain = 0
KBO1 032004Z 14012G18KT 33/11 A3015 RMK A01 T03340113  RH  026%=      5-min Rain = 0
KBO1 032005Z 13016G21KT 34/11 A3015 RMK A01 T03360114  RH  026%=      5-min Rain = 0
KBO1 032006Z 12016KT 34/11 A3015 RMK A01 T03390112  RH  025%=      5-min Rain = 0
KBO1 032007Z 13017KT 34/11 A3015 RMK A01 T03410110  RH  024%=      5-min Rain = 0
KBO1 032008Z 14009KT 34/11 A3015 RMK A01 T03370108  RH  025%=      5-min Rain = 0
KBO1 032009Z 15011KT 34/11 A3014 RMK A01 T03350108  RH  025%=      5-min Rain = 0
KBO1 032010Z 16007KT 33/11 A3014 RMK A01 T03340108  RH  025%=      5-min Rain = 0
KBO1 032011Z 15006KT 33/11 A3014 RMK A01 T03340106  RH  025%=      5-min Rain = 0
KBO1 032012Z 15006KT 33/11 A3014 RMK A01 T03340107  RH  025%=      5-min Rain = 0
KBO1 032013Z 15008G14KT 33/11 A3014 RMK A01 T03330108  RH  025%=      5-min Rain = 0
KBO1 032014Z 16012KT 34/10 A3014 RMK A01 T03360103  RH  024%=      5-min Rain = 0
KBO1 032015Z 17009KT 34/10 A3014 RMK A01 T03380104  RH  024%=      5-min Rain = 0
KBO1 032016Z 13009G14KT 34/11 A3015 RMK A01 T03350109  RH  025%=      5-min Rain = 0
KBO1 032017Z 13012G17KT 33/12 A3015 RMK A01 T03340116  RH  027%=      5-min Rain = 0
KBO1 032018Z 14013KT 33/12 A3015 RMK A01 T03320123  RH  028%=      5-min Rain = 0
KBO1 032019Z 14016KT 33/12 A3015 RMK A01 T03310122  RH  028%=      5-min Rain = 0
KBO1 032020Z 13013KT 33/12 A3015 RMK A01 T03320122  RH  028%=      5-min Rain = 0
KBO1 032021Z 13010KT 33/12 A3015 RMK A01 T03320121  RH  028%=      5-min Rain = 0
KBO1 032022Z 13003KT 33/12 A3015 RMK A01 T03300120  RH  028%=      5-min Rain = 0
KBO1 032023Z 08007KT 33/12 A3015 RMK A01 T03310121  RH  028%=      5-min Rain = 0
KBO1 032024Z 11013G18KT 34/12 A3015 RMK A01 T03350121  RH  027%=      5-min Rain = 0
KBO1 032025Z 15008KT 34/12 A3015 RMK A01 T03360120  RH  027%=      5-min Rain = 0
KBO1 032026Z 18006KT 34/12 A3015 RMK A01 T03400120  RH  026%=      5-min Rain = 0
KBO1 032027Z 15007KT 34/12 A3014 RMK A01 T03440119  RH  026%=      5-min Rain = 0
KBO1 032028Z 15012KT 35/12 A3014 RMK A01 T03450117  RH  025%=      5-min Rain = 0
KBO1 032029Z 16010KT 34/11 A3014 RMK A01 T03400113  RH  025%=      5-min Rain = 0
KBO1 032030Z 13012G17KT 33/11 A3014 RMK A01 T03330114  RH  026%=      5-min Rain = 0
KBO1 032031Z 15011KT 33/12 A3014 RMK A01 T03300115  RH  027%=      5-min Rain = 0
KBO1 032032Z 15008KT 33/12 A3014 RMK A01 T03290115  RH  027%=      5-min Rain = 0
KBO1 032033Z 13011G16KT 33/12 A3014 RMK A01 T03260115  RH  028%=      5-min Rain = 0
KBO1 032034Z 13014KT 33/12 A3014 RMK A01 T03250117  RH  028%=      5-min Rain = 0
KBO1 032035Z 13016KT 33/12 A3014 RMK A01 T03250119  RH  028%=      5-min Rain = 0
KBO1 032036Z 13014KT 32/12 A3014 RMK A01 T03240119  RH  029%=      5-min Rain = 0
KBO1 032037Z 12011KT 32/12 A3014 RMK A01 T03240116  RH  028%=      5-min Rain = 0
KBO1 032038Z 13013KT 32/12 A3014 RMK A01 T03230120  RH  029%=      5-min Rain = 0
KBO1 032039Z 14016KT 32/12 A3014 RMK A01 T03220122  RH  029%=      5-min Rain = 0
KBO1 032040Z 14013KT 32/12 A3014 RMK A01 T03210119  RH  029%=      5-min Rain = 0
KBO1 032041Z 14013KT 32/12 A3014 RMK A01 T03210120  RH  029%=      5-min Rain = 0
KBO1 032042Z 13011KT 32/12 A3014 RMK A01 T03200122  RH  030%=      5-min Rain = 0
KBO1 032043Z 14015KT 32/12 A3014 RMK A01 T03200122  RH  030%=      5-min Rain = 0
KBO1 032044Z 14012KT 32/12 A3014 RMK A01 T03210122  RH  030%=      5-min Rain = 0
KBO1 032045Z 15012KT 32/12 A3014 RMK A01 T03210120  RH  029%=      5-min Rain = 0
KBO1 032046Z 15007KT 32/12 A3014 RMK A01 T03210119  RH  029%=      5-min Rain = 0
KBO1 032047Z 16006KT 32/12 A3015 RMK A01 T03210120  RH  029%=      5-min Rain = 0
KBO1 032048Z 13007KT 32/12 A3015 RMK A01 T03200120  RH  029%=      5-min Rain = 0
KBO1 032049Z 11008KT 32/12 A3015 RMK A01 T03210119  RH  029%=      5-min Rain = 0
KBO1 032050Z 12008KT 32/12 A3015 RMK A01 T03220120  RH  029%=      5-min Rain = 0
KBO1 032051Z 15011KT 32/12 A3015 RMK A01 T03220122  RH  029%=      5-min Rain = 0
KBO1 032052Z 16010KT 32/12 A3015 RMK A01 T03220123  RH  030%=      5-min Rain = 0
KBO1 032053Z 16007KT 32/12 A3015 RMK A01 T03210122  RH  030%=      5-min Rain = 0
KBO1 032054Z 17007KT 32/12 A3015 RMK A01 T03200123  RH  030%=      5-min Rain = 0
KBO1 032055Z 14010KT 32/12 A3015 RMK A01 T03200123  RH  030%=      5-min Rain = 0
KBO1 032056Z 13011KT 32/13 A3015 RMK A01 T03200126  RH  031%=      5-min Rain = 0
KBO1 032057Z 13009KT 32/13 A3015 RMK A01 T03200126  RH  031%=      5-min Rain = 0
KBO1 032058Z 13009KT 32/13 A3015 RMK A01 T03200126  RH  031%=      5-min Rain = 0
KBO1 032059Z 13009KT 32/13 A3015 RMK A01 T03210126  RH  030%=      5-min Rain = 0
KBO1 032100Z 13014G19KT 32/13 A3015 RMK A01 T03210125  RH  030%=      5-min Rain = 0
KBO1 032101Z 13010KT 32/12 A3015 RMK A01 T03200123  RH  030%=      5-min Rain = 0
KBO1 032102Z 12010KT 32/12 A3015 RMK A01 T03180122  RH  030%=      5-min Rain = 0
KBO1 032103Z 15012KT 32/12 A3015 RMK A01 T03170123  RH  030%=      5-min Rain = 0
KBO1 032104Z 15013KT 32/12 A3015 RMK A01 T03190122  RH  030%=      5-min Rain = 0
KBO1 032105Z 14012KT 32/12 A3015 RMK A01 T03190122  RH  030%=      5-min Rain = 0
KBO1 032106Z 12008KT 32/12 A3015 RMK A01 T03190122  RH  030%=      5-min Rain = 0
KBO1 032107Z 12010KT 32/12 A3015 RMK A01 T03180121  RH  030%=      5-min Rain = 0
KBO1 032108Z 12009KT 32/12 A3015 RMK A01 T03180121  RH  030%=      5-min Rain = 0
KBO1 032109Z 14007KT 32/12 A3015 RMK A01 T03180120  RH  030%=      5-min Rain = 0
KBO1 032110Z 14009KT 32/12 A3015 RMK A01 T03190118  RH  029%=      5-min Rain = 0
KBO1 032111Z 13010KT 32/12 A3015 RMK A01 T03190117  RH  029%=      5-min Rain = 0
KBO1 032112Z 12009KT 32/12 A3015 RMK A01 T03190117  RH  029%=      5-min Rain = 0
KBO1 032113Z 12010KT 32/12 A3015 RMK A01 T03190117  RH  029%=      5-min Rain = 0
KBO1 032114Z 12008G14KT 32/12 A3015 RMK A01 T03190117  RH  029%=      5-min Rain = 0
KBO1 032115Z 12010KT 32/12 A3015 RMK A01 T03190117  RH  029%=      5-min Rain = 0
KBO1 032116Z 13008KT 32/12 A3014 RMK A01 T03180116  RH  029%=      5-min Rain = 0
KBO1 032117Z 11009KT 32/12 A3015 RMK A01 T03180117  RH  029%=      5-min Rain = 0
KBO1 032118Z 12009KT 32/12 A3014 RMK A01 T03180118  RH  029%=      5-min Rain = 0
KBO1 032119Z 12010KT 32/12 A3014 RMK A01 T03170117  RH  029%=      5-min Rain = 0
KBO1 032120Z 13007KT 32/12 A3014 RMK A01 T03180118  RH  029%=      5-min Rain = 0
KBO1 032121Z 12007G13KT 32/12 A3014 RMK A01 T03190119  RH  029%=      5-min Rain = 0
KBO1 032122Z 11014KT 32/12 A3014 RMK A01 T03200121  RH  030%=      5-min Rain = 0
KBO1 032123Z 13013KT 32/12 A3014 RMK A01 T03200123  RH  030%=      5-min Rain = 0
KBO1 032124Z 13012KT 32/12 A3014 RMK A01 T03190123  RH  030%=      5-min Rain = 0
KBO1 032125Z 13008KT 32/12 A3014 RMK A01 T03180124  RH  031%=      5-min Rain = 0
KBO1 032126Z 14011KT 32/12 A3014 RMK A01 T03180124  RH  031%=      5-min Rain = 0
KBO1 032127Z 15011KT 32/12 A3014 RMK A01 T03180123  RH  030%=      5-min Rain = 0
KBO1 032128Z 13012KT 32/12 A3014 RMK A01 T03180121  RH  030%=      5-min Rain = 0
KBO1 032129Z 11010KT 32/12 A3014 RMK A01 T03180123  RH  030%=      5-min Rain = 0
KBO1 032130Z 12010KT 32/12 A3014 RMK A01 T03180123  RH  030%=      5-min Rain = 0
KBO1 032131Z 13012KT 32/12 A3014 RMK A01 T03190122  RH  030%=      5-min Rain = 0
KBO1 032132Z 13011KT 32/12 A3014 RMK A01 T03190121  RH  030%=      5-min Rain = 0
KBO1 032133Z 12011KT 32/12 A3014 RMK A01 T03190120  RH  030%=      5-min Rain = 0
KBO1 032134Z 13013G18KT 32/12 A3014 RMK A01 T03190120  RH  030%=      5-min Rain = 0
KBO1 032135Z 13009KT 32/12 A3014 RMK A01 T03190120  RH  030%=      5-min Rain = 0
KBO1 032136Z 14012G17KT 32/12 A3013 RMK A01 T03190120  RH  030%=      5-min Rain = 0
KBO1 032137Z 14013KT 32/12 A3013 RMK A01 T03200121  RH  030%=      5-min Rain = 0
KBO1 032138Z 14013KT 32/12 A3013 RMK A01 T03200123  RH  030%=      5-min Rain = 0
KBO1 032139Z 14012KT 32/12 A3013 RMK A01 T03200124  RH  030%=      5-min Rain = 0
KBO1 032140Z 15012KT 32/12 A3013 RMK A01 T03190124  RH  030%=      5-min Rain = 0
KBO1 032141Z 13011KT 32/12 A3013 RMK A01 T03190123  RH  030%=      5-min Rain = 0
KBO1 032142Z 14013KT 32/12 A3013 RMK A01 T03200121  RH  030%=      5-min Rain = 0
KBO1 032143Z 15012KT 32/12 A3013 RMK A01 T03200122  RH  030%=      5-min Rain = 0
KBO1 032144Z 15010KT 32/12 A3013 RMK A01 T03210122  RH  030%=      5-min Rain = 0
KBO1 032145Z 15011KT 32/12 A3013 RMK A01 T03200121  RH  030%=      5-min Rain = 0
KBO1 032146Z 15011KT 32/12 A3013 RMK A01 T03200121  RH  030%=      5-min Rain = 0
KBO1 032147Z 16011KT 32/12 A3013 RMK A01 T03190121  RH  030%=      5-min Rain = 0
KBO1 032148Z 16009KT 32/12 A3013 RMK A01 T03190120  RH  030%=      5-min Rain = 0
KBO1 032149Z 16009KT 32/12 A3013 RMK A01 T03190120  RH  030%=      5-min Rain = 0
KBO1 032150Z 16011KT 32/12 A3013 RMK A01 T03200119  RH  029%=      5-min Rain = 0
KBO1 032151Z 17010KT 32/12 A3013 RMK A01 T03200119  RH  029%=      5-min Rain = 0
KBO1 032152Z 16008KT 32/12 A3013 RMK A01 T03200119  RH  029%=      5-min Rain = 0
KBO1 032153Z 17011KT 32/12 A3013 RMK A01 T03190118  RH  029%=      5-min Rain = 0
KBO1 032154Z 16013KT 32/12 A3013 RMK A01 T03200118  RH  029%=      5-min Rain = 0
KBO1 032155Z 14011KT 32/12 A3013 RMK A01 T03210119  RH  029%=      5-min Rain = 0
KBO1 032156Z 14011KT 32/12 A3013 RMK A01 T03220122  RH  029%=      5-min Rain = 0
KBO1 032157Z 13014KT 32/12 A3013 RMK A01 T03240122  RH  029%=      5-min Rain = 0
KBO1 032158Z 12014KT 32/12 A3013 RMK A01 T03240121  RH  029%=      5-min Rain = 0
KBO1 032159Z 12014KT 32/12 A3013 RMK A01 T03230121  RH  029%=      5-min Rain = 0
KBO1 032200Z 14010KT 32/12 A3013 RMK A01 T03220119  RH  029%=      5-min Rain = 0
KBO1 032201Z 14010KT 32/12 A3013 RMK A01 T03210119  RH  029%=      5-min Rain = 0
KBO1 032202Z 13011KT 32/12 A3013 RMK A01 T03220120  RH  029%=      5-min Rain = 0
KBO1 032203Z 12009KT 32/12 A3013 RMK A01 T03230119  RH  029%=      5-min Rain = 0
KBO1 032204Z 10011KT 33/12 A3013 RMK A01 T03260119  RH  028%=      5-min Rain = 0
KBO1 032205Z 10011KT 33/12 A3013 RMK A01 T03260119  RH  028%=      5-min Rain = 0
KBO1 032206Z 12013G18KT 33/12 A3013 RMK A01 T03260119  RH  028%=      5-min Rain = 0
KBO1 032207Z 13014KT 33/12 A3013 RMK A01 T03250123  RH  029%=      5-min Rain = 0
KBO1 032208Z 14011KT 33/12 A3013 RMK A01 T03260124  RH  029%=      5-min Rain = 0
KBO1 032209Z 14014KT 33/12 A3013 RMK A01 T03270123  RH  029%=      5-min Rain = 0
KBO1 032210Z 14013KT 33/12 A3013 RMK A01 T03250121  RH  029%=      5-min Rain = 0
KBO1 032211Z 15009KT 32/12 A3013 RMK A01 T03230121  RH  029%=      5-min Rain = 0
KBO1 032212Z 15010KT 32/12 A3013 RMK A01 T03230122  RH  029%=      5-min Rain = 0
KBO1 032213Z 15015KT 33/12 A3012 RMK A01 T03250118  RH  028%=      5-min Rain = 0
KBO1 032214Z 13013KT 33/12 A3012 RMK A01 T03250116  RH  028%=      5-min Rain = 0
KBO1 032215Z 12013KT 32/12 A3012 RMK A01 T03240118  RH  028%=      5-min Rain = 0
KBO1 032216Z 12012KT 32/12 A3012 RMK A01 T03230117  RH  028%=      5-min Rain = 0
KBO1 032217Z 13011KT 32/12 A3012 RMK A01 T03220115  RH  028%=      5-min Rain = 0
KBO1 032218Z 11009KT 32/11 A3012 RMK A01 T03210114  RH  028%=      5-min Rain = 0
KBO1 032219Z 13009G14KT 32/11 A3012 RMK A01 T03210113  RH  028%=      5-min Rain = 0
KBO1 032220Z 14013KT 32/12 A3012 RMK A01 T03220117  RH  029%=      5-min Rain = 0
KBO1 032221Z 14010KT 32/12 A3012 RMK A01 T03230117  RH  029%=      5-min Rain = 0
KBO1 032222Z 14010KT 32/12 A3012 RMK A01 T03230118  RH  029%=      5-min Rain = 0
KBO1 032223Z 13008KT 32/12 A3012 RMK A01 T03220117  RH  029%=      5-min Rain = 0
KBO1 032224Z 12009KT 32/12 A3012 RMK A01 T03220116  RH  028%=      5-min Rain = 0
KBO1 032225Z 11012KT 32/12 A3012 RMK A01 T03230116  RH  028%=      5-min Rain = 0
KBO1 032226Z 12012KT 32/12 A3012 RMK A01 T03230117  RH  028%=      5-min Rain = 0
KBO1 032227Z 15013KT 32/12 A3012 RMK A01 T03230119  RH  029%=      5-min Rain = 0
KBO1 032228Z 14013KT 32/12 A3012 RMK A01 T03240119  RH  029%=      5-min Rain = 0
KBO1 032229Z 14013KT 33/12 A3012 RMK A01 T03250119  RH  028%=      5-min Rain = 0
KBO1 032230Z 14015KT 32/12 A3012 RMK A01 T03240115  RH  028%=      5-min Rain = 0
KBO1 032231Z 12013KT 32/11 A3012 RMK A01 T03240111  RH  027%=      5-min Rain = 0
KBO1 032232Z 12013KT 32/11 A3012 RMK A01 T03230111  RH  027%=      5-min Rain = 0
KBO1 032233Z 12013KT 32/11 A3012 RMK A01 T03230114  RH  028%=      5-min Rain = 0
KBO1 032234Z 12010KT 32/12 A3012 RMK A01 T03230115  RH  028%=      5-min Rain = 0
KBO1 032235Z 12011KT 33/12 A3012 RMK A01 T03260117  RH  028%=      5-min Rain = 0
KBO1 032236Z 12011KT 33/12 A3012 RMK A01 T03260118  RH  028%=      5-min Rain = 0
KBO1 032237Z 12015KT 33/12 A3012 RMK A01 T03280119  RH  028%=      5-min Rain = 0
KBO1 032238Z 13014KT 33/12 A3012 RMK A01 T03280118  RH  028%=      5-min Rain = 0
KBO1 032239Z 13012KT 33/12 A3012 RMK A01 T03280118  RH  028%=      5-min Rain = 0
KBO1 032240Z 12010KT 33/12 A3012 RMK A01 T03270119  RH  028%=      5-min Rain = 0
KBO1 032241Z 13010KT 33/12 A3012 RMK A01 T03280123  RH  029%=      5-min Rain = 0
KBO1 032242Z 15012KT 33/12 A3012 RMK A01 T03310123  RH  028%=      5-min Rain = 0
KBO1 032243Z 14009KT 33/12 A3012 RMK A01 T03320122  RH  028%=      5-min Rain = 0
KBO1 032244Z 13012KT 34/12 A3012 RMK A01 T03350123  RH  028%=      5-min Rain = 0
KBO1 032245Z 14013KT 34/12 A3012 RMK A01 T03380120  RH  027%=      5-min Rain = 0
KBO1 032246Z 13012KT 34/12 A3012 RMK A01 T03380119  RH  027%=      5-min Rain = 0
KBO1 032247Z 12011KT 34/12 A3012 RMK A01 T03370120  RH  027%=      5-min Rain = 0
KBO1 032248Z 11015KT 34/12 A3012 RMK A01 T03400121  RH  026%=      5-min Rain = 0
KBO1 032249Z 12014KT 34/12 A3012 RMK A01 T03410120  RH  026%=      5-min Rain = 0
KBO1 032250Z 12016KT 34/12 A3012 RMK A01 T03400120  RH  026%=      5-min Rain = 0
KBO1 032251Z 12013KT 34/12 A3012 RMK A01 T03380118  RH  026%=      5-min Rain = 0
KBO1 032252Z 12011KT 34/12 A3012 RMK A01 T03360119  RH  027%=      5-min Rain = 0
KBO1 032253Z 12010KT 34/12 A3012 RMK A01 T03380120  RH  027%=      5-min Rain = 0
KBO1 032254Z 12014KT 34/12 A3012 RMK A01 T03400119  RH  026%=      5-min Rain = 0
KBO1 032255Z 12014KT 34/12 A3012 RMK A01 T03360117  RH  026%=      5-min Rain = 0
KBO1 032256Z 14014KT 33/12 A3012 RMK A01 T03310116  RH  027%=      5-min Rain = 0
KBO1 032257Z 14014KT 33/12 A3012 RMK A01 T03280116  RH  028%=      5-min Rain = 0
KBO1 032258Z 16012KT 33/12 A3011 RMK A01 T03280116  RH  028%=      5-min Rain = 0
KBO1 032259Z 15011KT 33/12 A3011 RMK A01 T03280117  RH  027%=      5-min Rain = 0
KBO1 032300Z 16010KT 33/12 A3011 RMK A01 T03300119  RH  028%=      5-min Rain = 0
KBO1 032301Z 14010KT 33/12 A3011 RMK A01 T03340122  RH  028%=      5-min Rain = 0
KBO1 032302Z 14015KT 34/12 A3011 RMK A01 T03360120  RH  027%=      5-min Rain = 0
KBO1 032303Z 15017KT 34/12 A3011 RMK A01 T03370118  RH  026%=      5-min Rain = 0
KBO1 032304Z 15015KT 34/12 A3011 RMK A01 T03360116  RH  026%=      5-min Rain = 0
KBO1 032305Z 15014KT 34/12 A3011 RMK A01 T03360116  RH  026%=      5-min Rain = 0
KBO1 032306Z 15012KT 34/12 A3011 RMK A01 T03360116  RH  026%=      5-min Rain = 0
KBO1 032307Z 15011KT 34/12 A3011 RMK A01 T03390116  RH  026%=      5-min Rain = 0
KBO1 032308Z 16013KT 34/12 A3011 RMK A01 T03410117  RH  026%=      5-min Rain = 0
KBO1 032309Z 17016KT 34/12 A3011 RMK A01 T03410123  RH  027%=      5-min Rain = 0
KBO1 032310Z 16016G22KT 34/12 A3011 RMK A01 T03410122  RH  027%=      5-min Rain = 0
KBO1 032311Z 17018G23KT 34/12 A3011 RMK A01 T03390122  RH  027%=      5-min Rain = 0
KBO1 032312Z 18017KT 34/12 A3011 RMK A01 T03350123  RH  028%=      5-min Rain = 0
KBO1 032313Z 18018KT 33/12 A3011 RMK A01 T03330123  RH  028%=      5-min Rain = 0
KBO1 032314Z 18018KT 33/12 A3011 RMK A01 T03300123  RH  028%=      5-min Rain = 0
KBO1 032315Z 19018KT 33/12 A3011 RMK A01 T03290123  RH  029%=      5-min Rain = 0
KBO1 032316Z 18017KT 33/12 A3011 RMK A01 T03290124  RH  029%=      5-min Rain = 0
KBO1 032317Z 18017KT 33/12 A3011 RMK A01 T03280124  RH  029%=      5-min Rain = 0
KBO1 032318Z 18015KT 33/13 A3011 RMK A01 T03290126  RH  029%=      5-min Rain = 0
KBO1 032319Z 18017KT 33/13 A3011 RMK A01 T03300126  RH  029%=      5-min Rain = 0
KBO1 032320Z 18016KT 33/13 A3011 RMK A01 T03320127  RH  029%=      5-min Rain = 0
KBO1 032321Z 18017KT 33/13 A3011 RMK A01 T03330127  RH  029%=      5-min Rain = 0
KBO1 032322Z 18018KT 33/13 A3011 RMK A01 T03300126  RH  029%=      5-min Rain = 0
KBO1 032323Z 18018KT 33/12 A3012 RMK A01 T03250123  RH  029%=      5-min Rain = 0
KBO1 032324Z 19016KT 32/12 A3012 RMK A01 T03210123  RH  030%=      5-min Rain = 0
KBO1 032325Z 18015KT 32/12 A3012 RMK A01 T03190123  RH  030%=      5-min Rain = 0
KBO1 032326Z 19017KT 32/12 A3012 RMK A01 T03170123  RH  031%=      5-min Rain = 0
KBO1 032327Z 19017KT 32/12 A3012 RMK A01 T03150123  RH  031%=      5-min Rain = 0
KBO1 032328Z 19016KT 31/12 A3012 RMK A01 T03140123  RH  031%=      5-min Rain = 0
KBO1 032329Z 19016KT 31/12 A3012 RMK A01 T03140124  RH  031%=      5-min Rain = 0
KBO1 032330Z 18015KT 31/12 A3012 RMK A01 T03130123  RH  031%=      5-min Rain = 0
KBO1 032331Z 19014KT 31/12 A3012 RMK A01 T03120123  RH  031%=      5-min Rain = 0
KBO1 032332Z 18015KT 31/12 A3012 RMK A01 T03120123  RH  031%=      5-min Rain = 0
KBO1 032333Z 19015KT 31/12 A3012 RMK A01 T03120123  RH  031%=      5-min Rain = 0
KBO1 032334Z 18012KT 31/12 A3012 RMK A01 T03130123  RH  031%=      5-min Rain = 0
KBO1 032335Z 18015KT 31/12 A3012 RMK A01 T03130123  RH  031%=      5-min Rain = 0
KBO1 032336Z 18015KT 31/12 A3012 RMK A01 T03130122  RH  031%=      5-min Rain = 0
KBO1 032337Z 18015KT 31/12 A3012 RMK A01 T03120122  RH  031%=      5-min Rain = 0
KBO1 032338Z 18014KT 31/12 A3012 RMK A01 T03120121  RH  031%=      5-min Rain = 0
KBO1 032339Z 18014KT 31/12 A3012 RMK A01 T03110120  RH  031%=      5-min Rain = 0
KBO1 032340Z 18013KT 31/12 A3012 RMK A01 T03110120  RH  031%=      5-min Rain = 0
KBO1 032341Z 17015KT 31/12 A3012 RMK A01 T03120120  RH  031%=      5-min Rain = 0
KBO1 032342Z 17014KT 31/12 A3012 RMK A01 T03120119  RH  031%=      5-min Rain = 0
KBO1 032343Z 17014KT 31/12 A3012 RMK A01 T03120119  RH  031%=      5-min Rain = 0
KBO1 032344Z 18012KT 31/12 A3012 RMK A01 T03110118  RH  031%=      5-min Rain = 0
KBO1 032345Z 18013KT 31/12 A3012 RMK A01 T03110118  RH  031%=      5-min Rain = 0
KBO1 032346Z 18014KT 31/12 A3012 RMK A01 T03110118  RH  031%=      5-min Rain = 0
KBO1 032347Z 18014KT 31/12 A3012 RMK A01 T03110118  RH  031%=      5-min Rain = 0
KBO1 032348Z 18012KT 31/12 A3012 RMK A01 T03110119  RH  031%=      5-min Rain = 0
KBO1 032349Z 18012KT 31/12 A3012 RMK A01 T03110119  RH  031%=      5-min Rain = 0
KBO1 032350Z 17013KT 31/12 A3012 RMK A01 T03110119  RH  031%=      5-min Rain = 0
KBO1 032351Z 17013KT 31/12 A3012 RMK A01 T03110119  RH  031%=      5-min Rain = 0
KBO1 032352Z 17013KT 31/12 A3012 RMK A01 T03110119  RH  031%=      5-min Rain = 0
KBO1 032353Z 18012KT 31/12 A3012 RMK A01 T03110120  RH  031%=      5-min Rain = 0
KBO1 032354Z 17011KT 31/12 A3012 RMK A01 T03110120  RH  031%=      5-min Rain = 0
KBO1 032355Z 18013KT 31/12 A3012 RMK A01 T03110120  RH  031%=      5-min Rain = 0
KBO1 032356Z 19014KT 31/12 A3012 RMK A01 T03110121  RH  031%=      5-min Rain = 0
KBO1 032357Z 19016KT 31/12 A3012 RMK A01 T03100122  RH  032%=      5-min Rain = 0
KBO1 032358Z 19013KT 31/12 A3012 RMK A01 T03090122  RH  032%=      5-min Rain = 0
KBO1 032359Z 18012KT 31/12 A3012 RMK A01 T03080121  RH  032%=      5-min Rain = 0
KBO1 040000Z 18012KT 31/12 A3012 RMK A01 T03080121  RH  032%=      5-min Rain = 0
KBO1 040001Z 18012KT 31/12 A3012 RMK A01 T03080119  RH  031%=      5-min Rain = 0
KBO1 040002Z 18012KT 31/12 A3012 RMK A01 T03080119  RH  031%=      5-min Rain = 0
KBO1 040003Z 18011KT 31/12 A3012 RMK A01 T03080119  RH  031%=      5-min Rain = 0
KBO1 040004Z 18012KT 31/12 A3012 RMK A01 T03080119  RH  031%=      5-min Rain = 0
KBO1 040005Z 18014KT 31/12 A3012 RMK A01 T03080119  RH  031%=      5-min Rain = 0
KBO1 040006Z 18014KT 31/12 A3012 RMK A01 T03080119  RH  032%=      5-min Rain = 0
KBO1 040007Z 18011KT 31/12 A3012 RMK A01 T03060119  RH  032%=      5-min Rain = 0
KBO1 040008Z 18012KT 31/12 A3012 RMK A01 T03060119  RH  032%=      5-min Rain = 0
KBO1 040009Z 18012KT 31/12 A3012 RMK A01 T03060120  RH  032%=      5-min Rain = 0
KBO1 040010Z 18012KT 31/12 A3012 RMK A01 T03050120  RH  032%=      5-min Rain = 0
KBO1 040011Z 18011KT 31/12 A3012 RMK A01 T03050120  RH  032%=      5-min Rain = 0
KBO1 040012Z 18010KT 31/12 A3013 RMK A01 T03050120  RH  032%=      5-min Rain = 0
KBO1 040013Z 18010KT 31/12 A3013 RMK A01 T03050120  RH  032%=      5-min Rain = 0
KBO1 040014Z 17009KT 31/12 A3013 RMK A01 T03050120  RH  032%=      5-min Rain = 0
KBO1 040015Z 17009KT 31/12 A3013 RMK A01 T03050119  RH  032%=      5-min Rain = 0
KBO1 040016Z 18009KT 31/12 A3013 RMK A01 T03050119  RH  032%=      5-min Rain = 0
KBO1 040017Z 17009KT 30/12 A3013 RMK A01 T03040120  RH  032%=      5-min Rain = 0
KBO1 040018Z 18009KT 30/12 A3013 RMK A01 T03040120  RH  032%=      5-min Rain = 0
KBO1 040019Z 18010KT 30/12 A3013 RMK A01 T03040121  RH  032%=      5-min Rain = 0
KBO1 040020Z 18011KT 30/12 A3013 RMK A01 T03030121  RH  033%=      5-min Rain = 0
KBO1 040021Z 18011KT 30/12 A3013 RMK A01 T03030121  RH  033%=      5-min Rain = 0
KBO1 040022Z 18011KT 30/12 A3013 RMK A01 T03020121  RH  033%=      5-min Rain = 0
KBO1 040023Z 18010KT 30/12 A3013 RMK A01 T03020122  RH  033%=      5-min Rain = 0
KBO1 040024Z 18009KT 30/12 A3013 RMK A01 T03010121  RH  033%=      5-min Rain = 0
KBO1 040025Z 18009KT 30/12 A3013 RMK A01 T03010121  RH  033%=      5-min Rain = 0
KBO1 040026Z 18011KT 30/12 A3013 RMK A01 T03010121  RH  033%=      5-min Rain = 0
KBO1 040027Z 18010KT 30/12 A3013 RMK A01 T03010121  RH  033%=      5-min Rain = 0
KBO1 040028Z 18009KT 30/12 A3013 RMK A01 T03010120  RH  033%=      5-min Rain = 0
KBO1 040029Z 18009KT 30/12 A3013 RMK A01 T03010120  RH  033%=      5-min Rain = 0
KBO1 040030Z 18009KT 30/12 A3013 RMK A01 T03000120  RH  033%=      5-min Rain = 0
KBO1 040031Z 18008KT 30/12 A3013 RMK A01 T03000119  RH  033%=      5-min Rain = 0
KBO1 040032Z 18009KT 30/12 A3013 RMK A01 T03000119  RH  033%=      5-min Rain = 0
KBO1 040033Z 18009KT 30/12 A3013 RMK A01 T03000119  RH  033%=      5-min Rain = 0
KBO1 040034Z 18008KT 30/12 A3013 RMK A01 T03000119  RH  033%=      5-min Rain = 0
KBO1 040035Z 18009KT 30/12 A3013 RMK A01 T03000119  RH  033%=      5-min Rain = 0
KBO1 040036Z 18008KT 30/12 A3013 RMK A01 T03000118  RH  032%=      5-min Rain = 0
KBO1 040037Z 18009KT 30/12 A3013 RMK A01 T03000117  RH  032%=      5-min Rain = 0
KBO1 040038Z 18008KT 30/12 A3013 RMK A01 T03000117  RH  032%=      5-min Rain = 0
KBO1 040039Z 18008KT 30/12 A3013 RMK A01 T03000116  RH  032%=      5-min Rain = 0
KBO1 040040Z 18009KT 30/12 A3013 RMK A01 T03000115  RH  032%=      5-min Rain = 0
KBO1 040041Z 18008KT 30/12 A3013 RMK A01 T03000115  RH  032%=      5-min Rain = 0
KBO1 040042Z 18008KT 30/12 A3013 RMK A01 T03000115  RH  032%=      5-min Rain = 0
KBO1 040043Z 18008KT 30/12 A3013 RMK A01 T03000115  RH  032%=      5-min Rain = 0
KBO1 040044Z 18009KT 30/11 A3013 RMK A01 T03000114  RH  032%=      5-min Rain = 0
KBO1 040045Z 18008KT 30/11 A3013 RMK A01 T03000114  RH  032%=      5-min Rain = 0
KBO1 040046Z 18008KT 30/11 A3013 RMK A01 T03000114  RH  032%=      5-min Rain = 0
KBO1 040047Z 18007KT 30/12 A3013 RMK A01 T03000115  RH  032%=      5-min Rain = 0
KBO1 040048Z 18007KT 30/12 A3013 RMK A01 T03000115  RH  032%=      5-min Rain = 0
KBO1 040049Z 18007KT 30/11 A3013 RMK A01 T03010114  RH  032%=      5-min Rain = 0
KBO1 040050Z 18007KT 30/11 A3013 RMK A01 T03000114  RH  032%=      5-min Rain = 0
KBO1 040051Z 18006KT 30/11 A3013 RMK A01 T03000114  RH  032%=      5-min Rain = 0
KBO1 040052Z 17006KT 30/11 A3013 RMK A01 T03000113  RH  031%=      5-min Rain = 0
KBO1 040053Z 17006KT 30/11 A3013 RMK A01 T03000113  RH  031%=      5-min Rain = 0
KBO1 040054Z 17006KT 30/11 A3013 RMK A01 T03000113  RH  031%=      5-min Rain = 0
KBO1 040055Z 17006KT 30/11 A3013 RMK A01 T03000112  RH  031%=      5-min Rain = 0
KBO1 040056Z 17006KT 30/11 A3013 RMK A01 T03000112  RH  031%=      5-min Rain = 0
KBO1 040057Z 17006KT 30/11 A3013 RMK A01 T03010112  RH  031%=      5-min Rain = 0
KBO1 040058Z 16005KT 30/11 A3013 RMK A01 T03010112  RH  031%=      5-min Rain = 0
KBO1 040059Z 16005KT 30/11 A3013 RMK A01 T03010112  RH  031%=      5-min Rain = 0
KBO1 040100Z 16005KT 30/11 A3013 RMK A01 T03000112  RH  031%=      5-min Rain = 0
KBO1 040101Z 16006KT 30/11 A3013 RMK A01 T03000112  RH  031%=      5-min Rain = 0
KBO1 040102Z 16006KT 30/11 A3013 RMK A01 T03010113  RH  031%=      5-min Rain = 0
KBO1 040103Z 16005KT 30/11 A3013 RMK A01 T03000112  RH  031%=      5-min Rain = 0
KBO1 040104Z 16005KT 30/11 A3013 RMK A01 T03000113  RH  031%=      5-min Rain = 0
KBO1 040105Z 16005KT 30/11 A3013 RMK A01 T03000113  RH  032%=      5-min Rain = 0
KBO1 040106Z 16005KT 30/11 A3013 RMK A01 T02990112  RH  032%=      5-min Rain = 0
KBO1 040107Z 15005KT 30/11 A3013 RMK A01 T02990113  RH  032%=      5-min Rain = 0
KBO1 040108Z 15006KT 30/11 A3013 RMK A01 T02990113  RH  032%=      5-min Rain = 0
KBO1 040109Z 16005KT 30/11 A3013 RMK A01 T02990113  RH  032%=      5-min Rain = 0
KBO1 040110Z 16004KT 30/11 A3013 RMK A01 T02990113  RH  032%=      5-min Rain = 0
KBO1 040111Z 15004KT 30/11 A3013 RMK A01 T02990114  RH  032%=      5-min Rain = 0
KBO1 040112Z 15003KT 30/11 A3013 RMK A01 T02980113  RH  032%=      5-min Rain = 0
KBO1 040113Z 15003KT 30/11 A3014 RMK A01 T02980114  RH  032%=      5-min Rain = 0
KBO1 040114Z 14003KT 30/11 A3014 RMK A01 T02970114  RH  032%=      5-min Rain = 0
KBO1 040115Z 12003KT 30/11 A3014 RMK A01 T02970114  RH  032%=      5-min Rain = 0
KBO1 040116Z 12003KT 30/11 A3014 RMK A01 T02960114  RH  033%=      5-min Rain = 0
KBO1 040117Z 12003KT 30/11 A3014 RMK A01 T02950114  RH  033%=      5-min Rain = 0
KBO1 040118Z 11002KT 30/12 A3014 RMK A01 T02950115  RH  033%=      5-min Rain = 0
KBO1 040119Z 11001KT 29/12 A3015 RMK A01 T02940115  RH  033%=      5-min Rain = 0
KBO1 040120Z 09000KT 29/12 A3015 RMK A01 T02940115  RH  033%=      5-min Rain = 0
KBO1 040121Z 32002KT 29/12 A3016 RMK A01 T02940115  RH  033%=      5-min Rain = 0
KBO1 040122Z 31006KT 29/12 A3016 RMK A01 T02940117  RH  033%=      5-min Rain = 0
KBO1 040123Z 31017G24KT 29/12 A3017 RMK A01 T02920119  RH  034%=      5-min Rain = 0
KBO1 040124Z 33025KT 28/13 A3017 RMK A01 T02830132  RH  039%=      5-min Rain = 0
KBO1 040125Z 33027KT 27/14 A3018 RMK A01 T02650135  RH  045%=      5-min Rain = 0
KBO1 040126Z 34025G30KT 25/14 A3018 RMK A01 T02530137  RH  049%=      5-min Rain = 0
KBO1 040127Z 34024KT 25/14 A3018 RMK A01 T02470138  RH  051%=      5-min Rain = 0
KBO1 040128Z 33019G24KT 24/14 A3018 RMK A01 T02440139  RH  052%=      5-min Rain = 0
KBO1 040129Z 32018KT 24/14 A3018 RMK A01 T02420140  RH  053%=      5-min Rain = 0
KBO1 040130Z 33021G27KT 24/14 A3018 RMK A01 T02410141  RH  054%=      5-min Rain = 0
KBO1 040131Z 33022KT 24/14 A3019 RMK A01 T02400141  RH  054%=      5-min Rain = 0
KBO1 040132Z 34024KT 24/14 A3019 RMK A01 T02380142  RH  055%=      5-min Rain = 0
KBO1 040133Z 33026G33KT 24/14 A3019 RMK A01 T02360142  RH  056%=      5-min Rain = 0
KBO1 040134Z 33028KT 23/14 A3019 RMK A01 T02340142  RH  056%=      5-min Rain = 0
KBO1 040135Z 33026KT 23/14 A3019 RMK A01 T02330142  RH  057%=      5-min Rain = 0
KBO1 040136Z 33024KT 23/14 A3019 RMK A01 T02320142  RH  057%=      5-min Rain = 0
KBO1 040137Z 34023KT 23/14 A3019 RMK A01 T02320141  RH  056%=      5-min Rain = 0
KBO1 040138Z 34024KT 23/14 A3019 RMK A01 T02320140  RH  056%=      5-min Rain = 0
KBO1 040139Z 34020KT 23/14 A3019 RMK A01 T02320140  RH  056%=      5-min Rain = 0
KBO1 040140Z 34018KT 23/14 A3019 RMK A01 T02320140  RH  056%=      5-min Rain = 0
KBO1 040141Z 34019KT 23/14 A3019 RMK A01 T02320140  RH  056%=      5-min Rain = 0
KBO1 040142Z 34021KT 23/14 A3019 RMK A01 T02320139  RH  056%=      5-min Rain = 0
KBO1 040143Z 34020G25KT 23/14 A3019 RMK A01 T02310138  RH  056%=      5-min Rain = 0
KBO1 040144Z 34018KT 23/14 A3019 RMK A01 T02320138  RH  056%=      5-min Rain = 0
KBO1 040145Z 34020KT 23/14 A3019 RMK A01 T02320138  RH  056%=      5-min Rain = 0
KBO1 040146Z 34019G24KT 23/14 A3019 RMK A01 T02320138  RH  055%=      5-min Rain = 0
KBO1 040147Z 34019G24KT 23/14 A3019 RMK A01 T02320137  RH  055%=      5-min Rain = 0
KBO1 040148Z 34020KT 23/14 A3019 RMK A01 T02320137  RH  055%=      5-min Rain = 0
KBO1 040149Z 34018KT 23/14 A3019 RMK A01 T02320137  RH  055%=      5-min Rain = 0
KBO1 040150Z 34020G25KT 23/14 A3019 RMK A01 T02330137  RH  055%=      5-min Rain = 0
KBO1 040151Z 34019KT 23/14 A3019 RMK A01 T02330137  RH  055%=      5-min Rain = 0
KBO1 040152Z 34019KT 23/14 A3019 RMK A01 T02330137  RH  055%=      5-min Rain = 0
KBO1 040153Z 34020G25KT 23/14 A3019 RMK A01 T02330138  RH  055%=      5-min Rain = 0
KBO1 040154Z 34020KT 23/14 A3019 RMK A01 T02320138  RH  055%=      5-min Rain = 0
KBO1 040155Z 34017KT 23/14 A3019 RMK A01 T02330138  RH  055%=      5-min Rain = 0
KBO1 040156Z 34017KT 23/14 A3019 RMK A01 T02330139  RH  055%=      5-min Rain = 0
KBO1 040157Z 34017KT 23/14 A3019 RMK A01 T02330139  RH  055%=      5-min Rain = 0
KBO1 040158Z 34020G26KT 23/14 A3019 RMK A01 T02330140  RH  056%=      5-min Rain = 0
KBO1 040159Z 33021KT 23/14 A3019 RMK A01 T02330140  RH  056%=      5-min Rain = 0
KBO1 040200Z 34020G26KT 23/14 A3019 RMK A01 T02330141  RH  056%=      5-min Rain = 0
KBO1 040201Z 34019KT 23/14 A3019 RMK A01 T02330141  RH  056%=      5-min Rain = 0
KBO1 040202Z 34020KT 23/14 A3019 RMK A01 T02330141  RH  056%=      5-min Rain = 0
KBO1 040203Z 34019KT 23/14 A3019 RMK A01 T02330142  RH  056%=      5-min Rain = 0
KBO1 040204Z 34022KT 23/14 A302 RMK A01 T02320142  RH  057%=      5-min Rain = 0
KBO1 040205Z 34020KT 23/14 A302 RMK A01 T02320142  RH  057%=      5-min Rain = 0
KBO1 040206Z 34019KT 23/14 A302 RMK A01 T02310142  RH  057%=      5-min Rain = 0
KBO1 040207Z 35020KT 23/14 A302 RMK A01 T02310143  RH  058%=      5-min Rain = 0
KBO1 040208Z 35021KT 23/14 A302 RMK A01 T02290143  RH  058%=      5-min Rain = 0
KBO1 040209Z 34021KT 23/14 A302 RMK A01 T02270144  RH  059%=      5-min Rain = 0
KBO1 040210Z 35018KT 23/14 A302 RMK A01 T02260144  RH  060%=      5-min Rain = 0
KBO1 040211Z 34017KT 23/15 A302 RMK A01 T02250145  RH  060%=      5-min Rain = 0
KBO1 040212Z 34019KT 22/15 A302 RMK A01 T02240145  RH  061%=      5-min Rain = 0
KBO1 040213Z 35016KT 22/15 A302 RMK A01 T02240145  RH  061%=      5-min Rain = 0
KBO1 040214Z 35020KT 22/15 A302 RMK A01 T02230145  RH  061%=      5-min Rain = 0
KBO1 040215Z 35020G25KT 22/15 A302 RMK A01 T02220146  RH  062%=      5-min Rain = 0
KBO1 040216Z 35020KT 22/15 A302 RMK A01 T02220146  RH  062%=      5-min Rain = 0
KBO1 040217Z 35021KT 22/15 A302 RMK A01 T02210145  RH  062%=      5-min Rain = 0
KBO1 040218Z 36017KT 22/15 A302 RMK A01 T02210145  RH  062%=      5-min Rain = 0
KBO1 040219Z 36019KT 22/15 A302 RMK A01 T02210146  RH  062%=      5-min Rain = 0
KBO1 040220Z 35018G23KT 22/15 A302 RMK A01 T02210146  RH  063%=      5-min Rain = 0
KBO1 040221Z 36018KT 22/15 A302 RMK A01 T02200147  RH  063%=      5-min Rain = 0
KBO1 040222Z 36017G22KT 22/15 A302 RMK A01 T02200148  RH  064%=      5-min Rain = 0
KBO1 040223Z 00019KT 22/15 A302 RMK A01 T02190148  RH  064%=      5-min Rain = 0
KBO1 040224Z 00017KT 22/15 A302 RMK A01 T02180149  RH  065%=      5-min Rain = 0
KBO1 040225Z 01018KT 22/15 A302 RMK A01 T02170148  RH  065%=      5-min Rain = 0
KBO1 040226Z 01016KT 22/15 A302 RMK A01 T02170148  RH  065%=      5-min Rain = 0
KBO1 040227Z 01017KT 22/15 A302 RMK A01 T02170148  RH  065%=      5-min Rain = 0
KBO1 040228Z 01018KT 22/15 A302 RMK A01 T02170147  RH  065%=      5-min Rain = 0
KBO1 040229Z 01019KT 22/15 A302 RMK A01 T02170147  RH  065%=      5-min Rain = 0
KBO1 040230Z 01020KT 22/15 A302 RMK A01 T02160148  RH  065%=      5-min Rain = 0
KBO1 040231Z 01019KT 22/15 A302 RMK A01 T02170148  RH  065%=      5-min Rain = 0
KBO1 040232Z 01018G24KT 22/15 A302 RMK A01 T02160147  RH  065%=      5-min Rain = 0
KBO1 040233Z 02020KT 22/15 A302 RMK A01 T02160147  RH  065%=      5-min Rain = 0
KBO1 040234Z 01017KT 22/15 A302 RMK A01 T02160147  RH  065%=      5-min Rain = 0
KBO1 040235Z 02017KT 22/15 A302 RMK A01 T02150147  RH  065%=      5-min Rain = 0
KBO1 040236Z 02016KT 22/15 A302 RMK A01 T02150147  RH  065%=      5-min Rain = 0
KBO1 040237Z 03018KT 22/15 A3021 RMK A01 T02150147  RH  065%=      5-min Rain = 0
KBO1 040238Z 02021KT 22/15 A3021 RMK A01 T02150147  RH  065%=      5-min Rain = 0
KBO1 040239Z 02020KT 22/15 A3021 RMK A01 T02150146  RH  065%=      5-min Rain = 0
KBO1 040240Z 03018KT 21/15 A3021 RMK A01 T02140146  RH  065%=      5-min Rain = 0
KBO1 040241Z 02017KT 21/15 A3021 RMK A01 T02140146  RH  065%=      5-min Rain = 0
KBO1 040242Z 02019KT 21/15 A3021 RMK A01 T02130146  RH  065%=      5-min Rain = 0
KBO1 040243Z 02017KT 21/15 A3021 RMK A01 T02130146  RH  066%=      5-min Rain = 0
KBO1 040244Z 02016KT 21/15 A3021 RMK A01 T02130146  RH  066%=      5-min Rain = 0
KBO1 040245Z 02019G24KT 21/15 A3021 RMK A01 T02130146  RH  066%=      5-min Rain = 0
KBO1 040246Z 02020KT 21/15 A3021 RMK A01 T02120145  RH  065%=      5-min Rain = 0
KBO1 040247Z 02024KT 21/14 A3021 RMK A01 T02110143  RH  065%=      5-min Rain = 0
KBO1 040248Z 02022KT 21/14 A3021 RMK A01 T02110143  RH  065%=      5-min Rain = 0
KBO1 040249Z 02022KT 21/14 A3021 RMK A01 T02110143  RH  065%=      5-min Rain = 0
KBO1 040250Z 02019KT 21/14 A3021 RMK A01 T02100142  RH  065%=      5-min Rain = 0
KBO1 040251Z 01021KT 21/14 A3021 RMK A01 T02100142  RH  065%=      5-min Rain = 0
KBO1 040252Z 01021KT 21/14 A302 RMK A01 T02100142  RH  065%=      5-min Rain = 0
KBO1 040253Z 01019KT 21/14 A3021 RMK A01 T02100142  RH  065%=      5-min Rain = 0
KBO1 040254Z 02018KT 21/14 A3021 RMK A01 T02100142  RH  065%=      5-min Rain = 0
KBO1 040255Z 02019KT 21/14 A3021 RMK A01 T02100141  RH  065%=      5-min Rain = 0
KBO1 040256Z 02019KT 21/14 A3021 RMK A01 T02100141  RH  064%=      5-min Rain = 0
KBO1 040257Z 01019KT 21/14 A3021 RMK A01 T02100140  RH  064%=      5-min Rain = 0
KBO1 040258Z 02019KT 21/14 A3021 RMK A01 T02100140  RH  064%=      5-min Rain = 0
KBO1 040259Z 02017KT 21/14 A3021 RMK A01 T02100140  RH  064%=      5-min Rain = 0
KBO1 040300Z 02018G24KT 21/14 A3021 RMK A01 T02100140  RH  064%=      5-min Rain = 0
KBO1 040301Z 02018G23KT 21/14 A3021 RMK A01 T02110139  RH  064%=      5-min Rain = 0
KBO1 040302Z 02017KT 21/14 A3021 RMK A01 T02110139  RH  064%=      5-min Rain = 0
KBO1 040303Z 02014KT 21/14 A3021 RMK A01 T02110139  RH  064%=      5-min Rain = 0
KBO1 040304Z 02018KT 21/14 A3021 RMK A01 T02110139  RH  064%=      5-min Rain = 0
KBO1 040305Z 02020KT 21/14 A3021 RMK A01 T02100139  RH  064%=      5-min Rain = 0
KBO1 040306Z 02017KT 21/14 A3021 RMK A01 T02100139  RH  064%=      5-min Rain = 0
KBO1 040307Z 02015G20KT 21/14 A302 RMK A01 T02090139  RH  064%=      5-min Rain = 0
KBO1 040308Z 02012KT 21/14 A302 RMK A01 T02090140  RH  064%=      5-min Rain = 0
KBO1 040309Z 03017KT 21/14 A302 RMK A01 T02090139  RH  064%=      5-min Rain = 0
KBO1 040310Z 02016KT 21/14 A302 RMK A01 T02090140  RH  065%=      5-min Rain = 0
KBO1 040311Z 02020KT 21/14 A302 RMK A01 T02090141  RH  065%=      5-min Rain = 0
KBO1 040312Z 02019KT 21/14 A302 RMK A01 T02080141  RH  065%=      5-min Rain = 0
KBO1 040313Z 02015KT 21/14 A302 RMK A01 T02080141  RH  065%=      5-min Rain = 0
KBO1 040314Z 02018KT 21/14 A302 RMK A01 T02070141  RH  066%=      5-min Rain = 0
KBO1 040315Z 02015KT 21/14 A302 RMK A01 T02070141  RH  066%=      5-min Rain = 0
KBO1 040316Z 02016KT 21/14 A302 RMK A01 T02070141  RH  066%=      5-min Rain = 0
KBO1 040317Z 02018KT 21/14 A302 RMK A01 T02070140  RH  066%=      5-min Rain = 0
KBO1 040318Z 02016KT 21/14 A302 RMK A01 T02070140  RH  066%=      5-min Rain = 0
KBO1 040319Z 02015KT 21/14 A302 RMK A01 T02070140  RH  066%=      5-min Rain = 0
KBO1 040320Z 02017KT 21/14 A302 RMK A01 T02070140  RH  065%=      5-min Rain = 0
KBO1 040321Z 02016KT 21/14 A302 RMK A01 T02070140  RH  065%=      5-min Rain = 0
KBO1 040322Z 03014KT 21/14 A302 RMK A01 T02070140  RH  065%=      5-min Rain = 0
KBO1 040323Z 02015KT 21/14 A302 RMK A01 T02070140  RH  065%=      5-min Rain = 0
KBO1 040324Z 02015KT 21/14 A3021 RMK A01 T02070140  RH  065%=      5-min Rain = 0
KBO1 040325Z 03014KT 21/14 A3021 RMK A01 T02070140  RH  065%=      5-min Rain = 0
KBO1 040326Z 02015KT 21/14 A3021 RMK A01 T02070140  RH  065%=      5-min Rain = 0
KBO1 040327Z 02015KT 21/14 A3021 RMK A01 T02070140  RH  065%=      5-min Rain = 0
KBO1 040328Z 03014KT 21/14 A3021 RMK A01 T02070140  RH  065%=      5-min Rain = 0
KBO1 040329Z 03014KT 21/14 A3021 RMK A01 T02070140  RH  065%=      5-min Rain = 0
KBO1 040330Z 03013KT 21/14 A3021 RMK A01 T02070140  RH  065%=      5-min Rain = 0
KBO1 040331Z 03015KT 21/14 A3021 RMK A01 T02070140  RH  065%=      5-min Rain = 0
KBO1 040332Z 03013KT 21/14 A3021 RMK A01 T02070140  RH  065%=      5-min Rain = 0
KBO1 040333Z 03013KT 21/14 A3021 RMK A01 T02070140  RH  065%=      5-min Rain = 0
KBO1 040334Z 03013KT 21/14 A3021 RMK A01 T02070140  RH  065%=      5-min Rain = 0
KBO1 040335Z 03013KT 21/14 A3021 RMK A01 T02070140  RH  065%=      5-min Rain = 0
KBO1 040336Z 03014KT 21/14 A3021 RMK A01 T02070140  RH  065%=      5-min Rain = 0
KBO1 040337Z 03013KT 21/14 A3021 RMK A01 T02070140  RH  065%=      5-min Rain = 0
KBO1 040338Z 03013KT 21/14 A3021 RMK A01 T02060140  RH  065%=      5-min Rain = 0
KBO1 040339Z 03012KT 21/14 A3021 RMK A01 T02060139  RH  066%=      5-min Rain = 0
KBO1 040340Z 03012KT 21/14 A3021 RMK A01 T02060140  RH  066%=      5-min Rain = 0
KBO1 040341Z 02013KT 21/14 A3021 RMK A01 T02060140  RH  065%=      5-min Rain = 0
KBO1 040342Z 02011KT 21/14 A3021 RMK A01 T02060140  RH  065%=      5-min Rain = 0
KBO1 040343Z 02012KT 21/14 A3022 RMK A01 T02060139  RH  065%=      5-min Rain = 0
KBO1 040344Z 02012KT 21/14 A3022 RMK A01 T02070139  RH  065%=      5-min Rain = 0
KBO1 040345Z 02012KT 21/14 A3022 RMK A01 T02070139  RH  065%=      5-min Rain = 0
KBO1 040346Z 02011KT 21/14 A3022 RMK A01 T02060139  RH  065%=      5-min Rain = 0
KBO1 040347Z 01011KT 21/14 A3022 RMK A01 T02060139  RH  065%=      5-min Rain = 0
KBO1 040348Z 01012KT 21/14 A3022 RMK A01 T02070139  RH  065%=      5-min Rain = 0
KBO1 040349Z 00012KT 21/14 A3022 RMK A01 T02060138  RH  065%=      5-min Rain = 0
KBO1 040350Z 00012KT 21/14 A3022 RMK A01 T02060139  RH  065%=      5-min Rain = 0
KBO1 040351Z 35011KT 21/14 A3022 RMK A01 T02070139  RH  065%=      5-min Rain = 0
KBO1 040352Z 35010KT 21/14 A3022 RMK A01 T02060138  RH  065%=      5-min Rain = 0
KBO1 040353Z 34011KT 21/14 A3022 RMK A01 T02050138  RH  065%=      5-min Rain = 0
KBO1 040354Z 34011KT 21/14 A3022 RMK A01 T02050139  RH  066%=      5-min Rain = 0
KBO1 040355Z 34011KT 21/14 A3022 RMK A01 T02050139  RH  066%=      5-min Rain = 0
KBO1 040356Z 34009KT 20/14 A3022 RMK A01 T02040138  RH  066%=      5-min Rain = 0
KBO1 040357Z 35009KT 20/14 A3022 RMK A01 T02030138  RH  066%=      5-min Rain = 0
KBO1 040358Z 36010KT 20/14 A3022 RMK A01 T02030138  RH  066%=      5-min Rain = 0
KBO1 040359Z 00009KT 20/14 A3021 RMK A01 T02030138  RH  066%=      5-min Rain = 0
KBO1 040400Z 01010KT 20/14 A3021 RMK A01 T02030138  RH  066%=      5-min Rain = 0
KBO1 040401Z 01009KT 20/14 A3022 RMK A01 T02030138  RH  066%=      5-min Rain = 0
KBO1 040402Z 01008KT 20/14 A3022 RMK A01 T02030138  RH  066%=      5-min Rain = 0
KBO1 040403Z 36008KT 20/14 A3022 RMK A01 T02030138  RH  066%=      5-min Rain = 0
KBO1 040404Z 34009KT 20/14 A3022 RMK A01 T02030138  RH  066%=      5-min Rain = 0
KBO1 040405Z 34008KT 20/14 A3022 RMK A01 T02030138  RH  066%=      5-min Rain = 0
KBO1 040406Z 33008KT 20/14 A3022 RMK A01 T02030138  RH  066%=      5-min Rain = 0
KBO1 040407Z 34008KT 20/14 A3022 RMK A01 T02020138  RH  066%=      5-min Rain = 0
KBO1 040408Z 34006KT 20/14 A3022 RMK A01 T02020138  RH  067%=      5-min Rain = 0
KBO1 040409Z 35005KT 20/14 A3022 RMK A01 T02020138  RH  067%=      5-min Rain = 0
KBO1 040410Z 36005KT 20/14 A3022 RMK A01 T02020138  RH  067%=      5-min Rain = 0
KBO1 040411Z 00006KT 20/14 A3022 RMK A01 T02020138  RH  067%=      5-min Rain = 0
KBO1 040412Z 00005KT 20/14 A3022 RMK A01 T02020138  RH  066%=      5-min Rain = 0
KBO1 040413Z 00006KT 20/14 A3022 RMK A01 T02020137  RH  066%=      5-min Rain = 0
KBO1 040414Z 36006KT 20/14 A3021 RMK A01 T02020137  RH  066%=      5-min Rain = 0
KBO1 040415Z 36007KT 20/14 A3021 RMK A01 T02020138  RH  066%=      5-min Rain = 0
KBO1 040416Z 36007KT 20/14 A3021 RMK A01 T02020138  RH  067%=      5-min Rain = 0
KBO1 040417Z 36007KT 20/14 A3021 RMK A01 T02020138  RH  067%=      5-min Rain = 0
KBO1 040418Z 35007KT 20/14 A3021 RMK A01 T02020138  RH  067%=      5-min Rain = 0
KBO1 040419Z 35006KT 20/14 A3021 RMK A01 T02010138  RH  067%=      5-min Rain = 0
KBO1 040420Z 35006KT 20/14 A3021 RMK A01 T02010138  RH  067%=      5-min Rain = 0
KBO1 040421Z 34006KT 20/14 A3021 RMK A01 T02010138  RH  067%=      5-min Rain = 0
KBO1 040422Z 34006KT 20/14 A3021 RMK A01 T02010138  RH  067%=      5-min Rain = 0
KBO1 040423Z 34006KT 20/14 A3021 RMK A01 T02000138  RH  067%=      5-min Rain = 0
KBO1 040424Z 33006KT 20/14 A3021 RMK A01 T02010138  RH  067%=      5-min Rain = 0
KBO1 040425Z 33007KT 20/14 A3022 RMK A01 T02000138  RH  067%=      5-min Rain = 0
KBO1 040426Z 33006KT 20/14 A3022 RMK A01 T02010139  RH  067%=      5-min Rain = 0
KBO1 040427Z 33006KT 20/14 A3022 RMK A01 T02010139  RH  067%=      5-min Rain = 0
KBO1 040428Z 33006KT 20/14 A3022 RMK A01 T02010139  RH  068%=      5-min Rain = 0
KBO1 040429Z 33007KT 20/14 A3022 RMK A01 T02000139  RH  068%=      5-min Rain = 0
KBO1 040430Z 33006KT 20/14 A3022 RMK A01 T02010139  RH  068%=      5-min Rain = 0
KBO1 040431Z 33006KT 20/14 A3022 RMK A01 T02010139  RH  068%=      5-min Rain = 0
KBO1 040432Z 33006KT 20/14 A3022 RMK A01 T02010139  RH  068%=      5-min Rain = 0
KBO1 040433Z 33006KT 20/14 A3022 RMK A01 T02010139  RH  068%=      5-min Rain = 0
KBO1 040434Z 33007KT 20/14 A3022 RMK A01 T02010139  RH  067%=      5-min Rain = 0
KBO1 040435Z 33006KT 20/14 A3022 RMK A01 T02000138  RH  067%=      5-min Rain = 0
KBO1 040436Z 33006KT 20/14 A3022 RMK A01 T02010139  RH  067%=      5-min Rain = 0
KBO1 040437Z 33006KT 20/14 A3022 RMK A01 T02010139  RH  067%=      5-min Rain = 0
KBO1 040438Z 33006KT 20/14 A3022 RMK A01 T02010139  RH  067%=      5-min Rain = 0
KBO1 040439Z 33005KT 20/14 A3022 RMK A01 T02010139  RH  067%=      5-min Rain = 0
KBO1 040440Z 33005KT 20/14 A3022 RMK A01 T02010139  RH  067%=      5-min Rain = 0
KBO1 040441Z 33005KT 20/14 A3022 RMK A01 T02010139  RH  067%=      5-min Rain = 0
KBO1 040442Z 33005KT 20/14 A3022 RMK A01 T02010139  RH  067%=      5-min Rain = 0
KBO1 040443Z 34005KT 20/14 A3022 RMK A01 T02010139  RH  067%=      5-min Rain = 0
KBO1 040444Z 35004KT 20/14 A3022 RMK A01 T02010139  RH  067%=      5-min Rain = 0
KBO1 040445Z 35004KT 20/14 A3022 RMK A01 T02020139  RH  067%=      5-min Rain = 0
KBO1 040446Z 34004KT 20/14 A3022 RMK A01 T02010139  RH  067%=      5-min Rain = 0
KBO1 040447Z 32004KT 20/14 A3022 RMK A01 T02010139  RH  067%=      5-min Rain = 0
KBO1 040448Z 31005KT 20/14 A3022 RMK A01 T02010139  RH  067%=      5-min Rain = 0
KBO1 040449Z 30006KT 20/14 A3022 RMK A01 T02010139  RH  067%=      5-min Rain = 0
KBO1 040450Z 30007KT 20/14 A3022 RMK A01 T02010139  RH  067%=      5-min Rain = 0
KBO1 040451Z 29007KT 20/14 A3022 RMK A01 T02020139  RH  067%=      5-min Rain = 0
KBO1 040452Z 29007KT 20/14 A3022 RMK A01 T02010139  RH  067%=      5-min Rain = 0
KBO1 040453Z 30008KT 20/14 A3022 RMK A01 T02010139  RH  067%=      5-min Rain = 0
KBO1 040454Z 30007KT 20/14 A3022 RMK A01 T02010139  RH  067%=      5-min Rain = 0
KBO1 040455Z 30007KT 20/14 A3022 RMK A01 T02010139  RH  068%=      5-min Rain = 0
KBO1 040456Z 30006KT 20/14 A3022 RMK A01 T02010139  RH  068%=      5-min Rain = 0
KBO1 040457Z 31005KT 20/14 A3022 RMK A01 T02000139  RH  068%=      5-min Rain = 0
KBO1 040458Z 30005KT 20/14 A3022 RMK A01 T02000139  RH  068%=      5-min Rain = 0
KBO1 040459Z 30004KT 20/14 A3022 RMK A01 T02000139  RH  068%=      5-min Rain = 0

Page generated in 0.0722 seconds.